<?xml version='1.0' encoding='UTF-8'?><gpx version="1.1" creator="JPX - https://github.com/jenetics/jpx" xmlns="http://www.topografix.com/GPX/1/1"><trk><trkseg><trkpt lat="45.49591582040096" lon="11.03407769603497"><ele>114.99999999999999</ele><time>2026-04-18T11:46:17.999Z</time></trkpt><trkpt lat="45.49585423299424" lon="11.03403171819903"><ele>115.0</ele><time>2026-04-18T11:46:21.999Z</time></trkpt><trkpt lat="45.49577851488267" lon="11.03401845793751"><ele>114.99999999999999</ele><time>2026-04-18T11:46:24.999Z</time></trkpt><trkpt lat="45.49571599612317" lon="11.033984980889167"><ele>114.99999999999999</ele><time>2026-04-18T11:46:27.999Z</time></trkpt><trkpt lat="45.49564990162221" lon="11.033971823400684"><ele>115.0</ele><time>2026-04-18T11:46:33.999Z</time></trkpt><trkpt lat="45.49559012177915" lon="11.033913335448103"><ele>114.99999999999999</ele><time>2026-04-18T11:46:48.998Z</time></trkpt><trkpt lat="45.49557545220258" lon="11.033814109095763"><ele>114.99999999999999</ele><time>2026-04-18T11:46:50.998Z</time></trkpt><trkpt lat="45.49554708284646" lon="11.033695773695367"><ele>115.0</ele><time>2026-04-18T11:46:52.998Z</time></trkpt><trkpt lat="45.49554193231385" lon="11.033572871358835"><ele>115.0</ele><time>2026-04-18T11:46:54.998Z</time></trkpt><trkpt lat="45.49553108320471" lon="11.033427594918018"><ele>115.0</ele><time>2026-04-18T11:46:56.998Z</time></trkpt><trkpt lat="45.49551198344608" lon="11.033266301037363"><ele>115.0</ele><time>2026-04-18T11:46:58.998Z</time></trkpt><trkpt lat="45.495515218381115" lon="11.03309857491638"><ele>115.0</ele><time>2026-04-18T11:47:00.998Z</time></trkpt><trkpt lat="45.495508499116966" lon="11.03296166387197"><ele>114.8</ele><time>2026-04-18T11:47:02.998Z</time></trkpt><trkpt lat="45.49549617211727" lon="11.03282486701726"><ele>114.6</ele><time>2026-04-18T11:47:04.998Z</time></trkpt><trkpt lat="45.49548464979005" lon="11.032689957758196"><ele>114.4</ele><time>2026-04-18T11:47:06.998Z</time></trkpt><trkpt lat="45.49546564436303" lon="11.03255122932279"><ele>114.2</ele><time>2026-04-18T11:47:08.998Z</time></trkpt><trkpt lat="45.495452257163976" lon="11.032414874918654"><ele>114.0</ele><time>2026-04-18T11:47:10.998Z</time></trkpt><trkpt lat="45.49543048644935" lon="11.03227396123679"><ele>113.5</ele><time>2026-04-18T11:47:12.998Z</time></trkpt><trkpt lat="45.495430513456576" lon="11.032143533080706"><ele>113.0</ele><time>2026-04-18T11:47:14.999Z</time></trkpt><trkpt lat="45.495433473795764" lon="11.032018454525305"><ele>112.5</ele><time>2026-04-18T11:47:16.999Z</time></trkpt><trkpt lat="45.495447879234305" lon="11.031903023039442"><ele>112.0</ele><time>2026-04-18T11:47:18.999Z</time></trkpt><trkpt lat="45.49546989560264" lon="11.03179758741501"><ele>111.5</ele><time>2026-04-18T11:47:20.999Z</time></trkpt><trkpt lat="45.4955006527795" lon="11.031678204783054"><ele>111.0</ele><time>2026-04-18T11:47:22.999Z</time></trkpt><trkpt lat="45.495532843644135" lon="11.031554930794368"><ele>111.0</ele><time>2026-04-18T11:47:24.999Z</time></trkpt><trkpt lat="45.495565164602034" lon="11.031430385803151"><ele>111.0</ele><time>2026-04-18T11:47:26.999Z</time></trkpt><trkpt lat="45.49559535742449" lon="11.031340155514831"><ele>111.0</ele><time>2026-04-18T11:47:28.999Z</time></trkpt><trkpt lat="45.495602093350634" lon="11.03120742040929"><ele>111.0</ele><time>2026-04-18T11:47:30.999Z</time></trkpt><trkpt lat="45.495608022906865" lon="11.031110936089727"><ele>111.0</ele><time>2026-04-18T11:47:32.999Z</time></trkpt><trkpt lat="45.49559574444253" lon="11.031022633791242"><ele>111.0</ele><time>2026-04-18T11:47:34.999Z</time></trkpt><trkpt lat="45.4955614445732" lon="11.030947168859349"><ele>111.0</ele><time>2026-04-18T11:47:36.999Z</time></trkpt><trkpt lat="45.495473975793495" lon="11.030892471586837"><ele>111.0</ele><time>2026-04-18T11:47:38.999Z</time></trkpt><trkpt lat="45.49538816854418" lon="11.030917538020452"><ele>111.0</ele><time>2026-04-18T11:47:40.999Z</time></trkpt><trkpt lat="45.49533075116297" lon="11.030874756374983"><ele>111.0</ele><time>2026-04-18T11:47:42.999Z</time></trkpt><trkpt lat="45.4952590864376" lon="11.030892091327267"><ele>111.0</ele><time>2026-04-18T11:47:44.999Z</time></trkpt><trkpt lat="45.49518203816131" lon="11.03094004320965"><ele>111.0</ele><time>2026-04-18T11:47:46.999Z</time></trkpt><trkpt lat="45.49511218567763" lon="11.030961238148235"><ele>111.0</ele><time>2026-04-18T11:47:48.999Z</time></trkpt><trkpt lat="45.49503919391841" lon="11.03098831619513"><ele>111.0</ele><time>2026-04-18T11:47:50.999Z</time></trkpt><trkpt lat="45.4949492474618" lon="11.031014207201515"><ele>111.0</ele><time>2026-04-18T11:47:52.999Z</time></trkpt><trkpt lat="45.49486272877307" lon="11.031043744851239"><ele>111.0</ele><time>2026-04-18T11:47:54.999Z</time></trkpt><trkpt lat="45.49477535636845" lon="11.031068238413974"><ele>111.0</ele><time>2026-04-18T11:47:56.999Z</time></trkpt><trkpt lat="45.494693015665675" lon="11.03110233451691"><ele>111.0</ele><time>2026-04-18T11:47:58.999Z</time></trkpt><trkpt lat="45.49460505813697" lon="11.031128054751681"><ele>110.8</ele><time>2026-04-18T11:48:00.999Z</time></trkpt><trkpt lat="45.49450525083848" lon="11.0311492119093"><ele>110.6</ele><time>2026-04-18T11:48:02.999Z</time></trkpt><trkpt lat="45.49440607009783" lon="11.031181409049703"><ele>110.4</ele><time>2026-04-18T11:48:04.999Z</time></trkpt><trkpt lat="45.494312209310635" lon="11.03120953005379"><ele>110.2</ele><time>2026-04-18T11:48:06.999Z</time></trkpt><trkpt lat="45.49421929727991" lon="11.031237087378562"><ele>110.0</ele><time>2026-04-18T11:48:08.999Z</time></trkpt><trkpt lat="45.49412745834418" lon="11.031265746075498"><ele>109.99999999999999</ele><time>2026-04-18T11:48:10.999Z</time></trkpt><trkpt lat="45.49404119056441" lon="11.031288825514455"><ele>110.0</ele><time>2026-04-18T11:48:12.999Z</time></trkpt><trkpt lat="45.4939795916811" lon="11.031309511309102"><ele>110.0</ele><time>2026-04-18T11:48:15.999Z</time></trkpt><trkpt lat="45.49388930050038" lon="11.031328596123249"><ele>110.0</ele><time>2026-04-18T11:48:18.999Z</time></trkpt><trkpt lat="45.49380302384966" lon="11.031354346625708"><ele>109.99999999999999</ele><time>2026-04-18T11:48:20.999Z</time></trkpt><trkpt lat="45.493711595263456" lon="11.031383188424206"><ele>110.0</ele><time>2026-04-18T11:48:22.999Z</time></trkpt><trkpt lat="45.49362180603663" lon="11.031408600165763"><ele>109.4</ele><time>2026-04-18T11:48:24.999Z</time></trkpt><trkpt lat="45.49352847545293" lon="11.031425518302164"><ele>108.8</ele><time>2026-04-18T11:48:26.999Z</time></trkpt><trkpt lat="45.49343354150311" lon="11.031443237648903"><ele>108.19999999999999</ele><time>2026-04-18T11:48:28.999Z</time></trkpt><trkpt lat="45.493329630586" lon="11.031456982025507"><ele>107.6</ele><time>2026-04-18T11:48:30.999Z</time></trkpt><trkpt lat="45.49323053440301" lon="11.03147262534906"><ele>107.0</ele><time>2026-04-18T11:48:32.999Z</time></trkpt><trkpt lat="45.49312470984239" lon="11.031495701560209"><ele>107.0</ele><time>2026-04-18T11:48:34.998Z</time></trkpt><trkpt lat="45.493022992917126" lon="11.031513308902882"><ele>106.99999999999999</ele><time>2026-04-18T11:48:36.998Z</time></trkpt><trkpt lat="45.49290641573523" lon="11.031534210586392"><ele>106.99999999999999</ele><time>2026-04-18T11:48:38.998Z</time></trkpt><trkpt lat="45.492816046597234" lon="11.031550886153502"><ele>107.0</ele><time>2026-04-18T11:48:40.998Z</time></trkpt><trkpt lat="45.49275259523703" lon="11.03155694390046"><ele>107.0</ele><time>2026-04-18T11:48:41.998Z</time></trkpt><trkpt lat="45.49265917914929" lon="11.031584292653193"><ele>106.99999999999999</ele><time>2026-04-18T11:48:43.998Z</time></trkpt><trkpt lat="45.492566260731635" lon="11.031581472711164"><ele>107.0</ele><time>2026-04-18T11:48:45.998Z</time></trkpt><trkpt lat="45.49251883365229" lon="11.031453626126176"><ele>107.0</ele><time>2026-04-18T11:48:47.998Z</time></trkpt><trkpt lat="45.49248640403352" lon="11.03132701945226"><ele>107.0</ele><time>2026-04-18T11:48:49.998Z</time></trkpt><trkpt lat="45.492449739555475" lon="11.031253146315242"><ele>106.99999999999999</ele><time>2026-04-18T11:48:51.998Z</time></trkpt><trkpt lat="45.49238126198082" lon="11.031177580542504"><ele>107.0</ele><time>2026-04-18T11:48:53.998Z</time></trkpt><trkpt lat="45.49231628647926" lon="11.031132668070816"><ele>106.99999999999999</ele><time>2026-04-18T11:48:55.998Z</time></trkpt><trkpt lat="45.492251432435246" lon="11.031082775181462"><ele>107.0</ele><time>2026-04-18T11:48:57.998Z</time></trkpt><trkpt lat="45.49218508474033" lon="11.031035023446277"><ele>107.0</ele><time>2026-04-18T11:48:59.998Z</time></trkpt><trkpt lat="45.49210938420362" lon="11.030965551476076"><ele>107.0</ele><time>2026-04-18T11:49:02.998Z</time></trkpt><trkpt lat="45.49204857941585" lon="11.030927701455202"><ele>106.99999999999999</ele><time>2026-04-18T11:49:04.998Z</time></trkpt><trkpt lat="45.49197456469495" lon="11.030893873245548"><ele>107.0</ele><time>2026-04-18T11:49:06.998Z</time></trkpt><trkpt lat="45.49190504537623" lon="11.030863028554716"><ele>106.83333333333333</ele><time>2026-04-18T11:49:08.998Z</time></trkpt><trkpt lat="45.49180962973691" lon="11.030830079771894"><ele>106.66666666666666</ele><time>2026-04-18T11:49:10.998Z</time></trkpt><trkpt lat="45.491727209623114" lon="11.030800684072805"><ele>106.5</ele><time>2026-04-18T11:49:12.998Z</time></trkpt><trkpt lat="45.491653572013554" lon="11.030776313735757"><ele>106.33333333333334</ele><time>2026-04-18T11:49:14.998Z</time></trkpt><trkpt lat="45.49155824113352" lon="11.03073868955014"><ele>106.16666666666667</ele><time>2026-04-18T11:49:17.998Z</time></trkpt><trkpt lat="45.491491029106676" lon="11.030719160949428"><ele>106.0</ele><time>2026-04-18T11:49:19.998Z</time></trkpt><trkpt lat="45.491428553561136" lon="11.030698441767559"><ele>106.0</ele><time>2026-04-18T11:49:21.999Z</time></trkpt><trkpt lat="45.49135945885394" lon="11.03066880383893"><ele>106.0</ele><time>2026-04-18T11:49:24Z</time></trkpt><trkpt lat="45.49128466561616" lon="11.030658053538627"><ele>106.0</ele><time>2026-04-18T11:49:27Z</time></trkpt><trkpt lat="45.49120609166615" lon="11.030621069810811"><ele>106.0</ele><time>2026-04-18T11:49:30Z</time></trkpt><trkpt lat="45.49113417459448" lon="11.03060291536028"><ele>106.0</ele><time>2026-04-18T11:49:32Z</time></trkpt><trkpt lat="45.491060062371794" lon="11.030581679925639"><ele>106.0</ele><time>2026-04-18T11:49:34Z</time></trkpt><trkpt lat="45.490992679324314" lon="11.030559207396802"><ele>106.0</ele><time>2026-04-18T11:49:36Z</time></trkpt><trkpt lat="45.49092207090231" lon="11.030539743147928"><ele>105.83333333333334</ele><time>2026-04-18T11:49:38Z</time></trkpt><trkpt lat="45.49085051789567" lon="11.0305025274289"><ele>105.66666666666667</ele><time>2026-04-18T11:49:40Z</time></trkpt><trkpt lat="45.490775512806145" lon="11.030482528107518"><ele>105.5</ele><time>2026-04-18T11:49:42Z</time></trkpt><trkpt lat="45.49068883860815" lon="11.030459966890806"><ele>105.33333333333334</ele><time>2026-04-18T11:49:44Z</time></trkpt><trkpt lat="45.490598856776465" lon="11.030424898370304"><ele>105.16666666666667</ele><time>2026-04-18T11:49:46Z</time></trkpt><trkpt lat="45.49051543409508" lon="11.03040039549458"><ele>105.0</ele><time>2026-04-18T11:49:47.999Z</time></trkpt><trkpt lat="45.49043544820287" lon="11.03036647039145"><ele>104.42857142857143</ele><time>2026-04-18T11:49:49.999Z</time></trkpt><trkpt lat="45.49036371621754" lon="11.03034524981365"><ele>103.85714285714286</ele><time>2026-04-18T11:49:51.999Z</time></trkpt><trkpt lat="45.490301276108" lon="11.030326977856772"><ele>103.28571428571428</ele><time>2026-04-18T11:49:53.999Z</time></trkpt><trkpt lat="45.49024297715752" lon="11.030291231431756"><ele>102.71428571428572</ele><time>2026-04-18T11:49:55.999Z</time></trkpt><trkpt lat="45.49016972054138" lon="11.030264055888912"><ele>102.14285714285714</ele><time>2026-04-18T11:49:56.999Z</time></trkpt><trkpt lat="45.490092123774005" lon="11.030255579253538"><ele>101.57142857142857</ele><time>2026-04-18T11:49:59.999Z</time></trkpt><trkpt lat="45.490014515000745" lon="11.03022511556416"><ele>101.0</ele><time>2026-04-18T11:50:01.999Z</time></trkpt><trkpt lat="45.48994833071383" lon="11.030200707761443"><ele>100.99999999999999</ele><time>2026-04-18T11:50:03.999Z</time></trkpt><trkpt lat="45.48988359468544" lon="11.030181805714841"><ele>101.0</ele><time>2026-04-18T11:50:05.999Z</time></trkpt><trkpt lat="45.4898116150616" lon="11.030176929949551"><ele>101.0</ele><time>2026-04-18T11:50:07.999Z</time></trkpt><trkpt lat="45.489740380584834" lon="11.03018388257156"><ele>101.0</ele><time>2026-04-18T11:50:09.999Z</time></trkpt><trkpt lat="45.48966453696393" lon="11.030193871705189"><ele>100.99999999999999</ele><time>2026-04-18T11:50:11.999Z</time></trkpt><trkpt lat="45.48958453273148" lon="11.030206094588394"><ele>101.0</ele><time>2026-04-18T11:50:14.999Z</time></trkpt><trkpt lat="45.489493604112944" lon="11.030229842057024"><ele>100.6</ele><time>2026-04-18T11:50:17.999Z</time></trkpt><trkpt lat="45.48940119806286" lon="11.030260229393226"><ele>100.19999999999999</ele><time>2026-04-18T11:50:20.999Z</time></trkpt><trkpt lat="45.48931499407662" lon="11.030281163098484"><ele>99.80000000000001</ele><time>2026-04-18T11:50:22.999Z</time></trkpt><trkpt lat="45.48922133049994" lon="11.030290071034658"><ele>99.4</ele><time>2026-04-18T11:50:24.999Z</time></trkpt><trkpt lat="45.48913197257053" lon="11.030308732767242"><ele>99.0</ele><time>2026-04-18T11:50:26.999Z</time></trkpt><trkpt lat="45.48904208195486" lon="11.030335598214876"><ele>99.0</ele><time>2026-04-18T11:50:28.999Z</time></trkpt><trkpt lat="45.48895510137813" lon="11.030366349171823"><ele>99.0</ele><time>2026-04-18T11:50:30.999Z</time></trkpt><trkpt lat="45.48886893002115" lon="11.030367024737094"><ele>99.0</ele><time>2026-04-18T11:50:32.999Z</time></trkpt><trkpt lat="45.48878235057785" lon="11.030390464812582"><ele>99.0</ele><time>2026-04-18T11:50:34.999Z</time></trkpt><trkpt lat="45.48868812521831" lon="11.030395040729472"><ele>99.0</ele><time>2026-04-18T11:50:36.999Z</time></trkpt><trkpt lat="45.48860129598717" lon="11.03040098238566"><ele>99.0</ele><time>2026-04-18T11:50:38.999Z</time></trkpt><trkpt lat="45.48851407075772" lon="11.030414721798081"><ele>99.0</ele><time>2026-04-18T11:50:40.999Z</time></trkpt><trkpt lat="45.488424212227685" lon="11.03043882189993"><ele>99.0</ele><time>2026-04-18T11:50:42.999Z</time></trkpt><trkpt lat="45.48833677260778" lon="11.030454839809698"><ele>99.0</ele><time>2026-04-18T11:50:44.999Z</time></trkpt><trkpt lat="45.48826553036781" lon="11.030489809468136"><ele>99.0</ele><time>2026-04-18T11:50:46.999Z</time></trkpt><trkpt lat="45.488179577021505" lon="11.030504825305723"><ele>99.0</ele><time>2026-04-18T11:50:48.999Z</time></trkpt><trkpt lat="45.488106551086894" lon="11.030525387769941"><ele>99.0</ele><time>2026-04-18T11:50:50.999Z</time></trkpt><trkpt lat="45.48803048981789" lon="11.03054147297984"><ele>99.0</ele><time>2026-04-18T11:50:52.998Z</time></trkpt><trkpt lat="45.48794078723365" lon="11.030563656945596"><ele>99.0</ele><time>2026-04-18T11:50:54.998Z</time></trkpt><trkpt lat="45.48785567985197" lon="11.030593560362032"><ele>99.0</ele><time>2026-04-18T11:50:56.998Z</time></trkpt><trkpt lat="45.487765184597016" lon="11.030616257603771"><ele>99.0</ele><time>2026-04-18T11:50:58.998Z</time></trkpt><trkpt lat="45.487676393740216" lon="11.030624915671075"><ele>99.0</ele><time>2026-04-18T11:51:00.998Z</time></trkpt><trkpt lat="45.487604255775224" lon="11.030683091979041"><ele>99.0</ele><time>2026-04-18T11:51:02.998Z</time></trkpt><trkpt lat="45.48751447859598" lon="11.0307188783345"><ele>98.5</ele><time>2026-04-18T11:51:04.998Z</time></trkpt><trkpt lat="45.487442485378914" lon="11.030741613848177"><ele>98.0</ele><time>2026-04-18T11:51:06.998Z</time></trkpt><trkpt lat="45.487362340005085" lon="11.030775126722727"><ele>97.5</ele><time>2026-04-18T11:51:08.998Z</time></trkpt><trkpt lat="45.48728264102763" lon="11.030804486543785"><ele>97.0</ele><time>2026-04-18T11:51:10.998Z</time></trkpt><trkpt lat="45.487198961904696" lon="11.030842752002362"><ele>96.5</ele><time>2026-04-18T11:51:12.998Z</time></trkpt><trkpt lat="45.4871254153855" lon="11.030869970125757"><ele>96.0</ele><time>2026-04-18T11:51:14.998Z</time></trkpt><trkpt lat="45.487055446696324" lon="11.03089574272151"><ele>95.83333333333333</ele><time>2026-04-18T11:51:16.998Z</time></trkpt><trkpt lat="45.48698504674048" lon="11.030925640753075"><ele>95.66666666666667</ele><time>2026-04-18T11:51:18.998Z</time></trkpt><trkpt lat="45.486908636101745" lon="11.03096904407135"><ele>95.5</ele><time>2026-04-18T11:51:20.998Z</time></trkpt><trkpt lat="45.486818916556665" lon="11.030998602487802"><ele>95.33333333333334</ele><time>2026-04-18T11:51:22.998Z</time></trkpt><trkpt lat="45.48674887267533" lon="11.031023204164788"><ele>95.16666666666667</ele><time>2026-04-18T11:51:24.998Z</time></trkpt><trkpt lat="45.48667216144063" lon="11.03105615524188"><ele>95.0</ele><time>2026-04-18T11:51:27Z</time></trkpt><trkpt lat="45.486606288906785" lon="11.031085324249597"><ele>95.0</ele><time>2026-04-18T11:51:29Z</time></trkpt><trkpt lat="45.486544852636584" lon="11.031109862680939"><ele>95.0</ele><time>2026-04-18T11:51:31Z</time></trkpt><trkpt lat="45.48647314447604" lon="11.031134207931643"><ele>95.0</ele><time>2026-04-18T11:51:33Z</time></trkpt><trkpt lat="45.48637911133555" lon="11.031189880378088"><ele>95.0</ele><time>2026-04-18T11:51:36Z</time></trkpt><trkpt lat="45.486297366690216" lon="11.031210932062416"><ele>95.0</ele><time>2026-04-18T11:51:38Z</time></trkpt><trkpt lat="45.48619813077845" lon="11.031192112992237"><ele>95.0</ele><time>2026-04-18T11:51:40Z</time></trkpt><trkpt lat="45.48613502835804" lon="11.031158477981746"><ele>95.0</ele><time>2026-04-18T11:51:41Z</time></trkpt><trkpt lat="45.48605364217623" lon="11.031051525749275"><ele>95.0</ele><time>2026-04-18T11:51:43Z</time></trkpt><trkpt lat="45.48600467344418" lon="11.030915917805467"><ele>95.0</ele><time>2026-04-18T11:51:45Z</time></trkpt><trkpt lat="45.485980776058554" lon="11.030790102737077"><ele>95.0</ele><time>2026-04-18T11:51:47Z</time></trkpt><trkpt lat="45.48595825637019" lon="11.030684037652971"><ele>95.0</ele><time>2026-04-18T11:51:49Z</time></trkpt><trkpt lat="45.485945066261934" lon="11.030577629543581"><ele>95.0</ele><time>2026-04-18T11:51:51Z</time></trkpt><trkpt lat="45.485930742375785" lon="11.030490025675174"><ele>95.0</ele><time>2026-04-18T11:51:53Z</time></trkpt><trkpt lat="45.48591393853286" lon="11.030358072613234"><ele>95.0</ele><time>2026-04-18T11:51:56Z</time></trkpt><trkpt lat="45.485905359002274" lon="11.030267258749197"><ele>95.0</ele><time>2026-04-18T11:51:58Z</time></trkpt><trkpt lat="45.48589043820707" lon="11.030169292166404"><ele>95.0</ele><time>2026-04-18T11:52:00Z</time></trkpt><trkpt lat="45.485865515307594" lon="11.03007941066281"><ele>95.0</ele><time>2026-04-18T11:52:02Z</time></trkpt><trkpt lat="45.4858366328691" lon="11.029981543309113"><ele>95.0</ele><time>2026-04-18T11:52:04Z</time></trkpt><trkpt lat="45.485805625670835" lon="11.029879649260542"><ele>95.0</ele><time>2026-04-18T11:52:06Z</time></trkpt><trkpt lat="45.48577379545076" lon="11.029778959263664"><ele>95.0</ele><time>2026-04-18T11:52:08Z</time></trkpt><trkpt lat="45.485740666562236" lon="11.029691113085944"><ele>95.0</ele><time>2026-04-18T11:52:09.999Z</time></trkpt><trkpt lat="45.48571342110438" lon="11.029585775966252"><ele>95.0</ele><time>2026-04-18T11:52:11.999Z</time></trkpt><trkpt lat="45.48565052703011" lon="11.029479840979336"><ele>95.0</ele><time>2026-04-18T11:52:13.999Z</time></trkpt><trkpt lat="45.48560625431954" lon="11.029364682199645"><ele>95.0</ele><time>2026-04-18T11:52:15.999Z</time></trkpt><trkpt lat="45.48555028786934" lon="11.029263983668052"><ele>95.0</ele><time>2026-04-18T11:52:17.999Z</time></trkpt><trkpt lat="45.48549791223003" lon="11.029178094294526"><ele>95.0</ele><time>2026-04-18T11:52:19.999Z</time></trkpt><trkpt lat="45.485434675197524" lon="11.029092816870675"><ele>95.0</ele><time>2026-04-18T11:52:21.999Z</time></trkpt><trkpt lat="45.48535883998351" lon="11.029037623515995"><ele>95.0</ele><time>2026-04-18T11:52:23.999Z</time></trkpt><trkpt lat="45.48528275722603" lon="11.028991080687465"><ele>95.0</ele><time>2026-04-18T11:52:25.999Z</time></trkpt><trkpt lat="45.4852114150255" lon="11.028937621042003"><ele>95.0</ele><time>2026-04-18T11:52:27.999Z</time></trkpt><trkpt lat="45.485138361090605" lon="11.02891461393097"><ele>94.66666666666667</ele><time>2026-04-18T11:52:29.999Z</time></trkpt><trkpt lat="45.48505134890055" lon="11.028880039046939"><ele>94.33333333333334</ele><time>2026-04-18T11:52:31.999Z</time></trkpt><trkpt lat="45.48497740367018" lon="11.028851023073008"><ele>94.0</ele><time>2026-04-18T11:52:33.999Z</time></trkpt><trkpt lat="45.48488720873138" lon="11.028834987872486"><ele>93.66666666666667</ele><time>2026-04-18T11:52:35.999Z</time></trkpt><trkpt lat="45.4848060996303" lon="11.02881150691992"><ele>93.33333333333333</ele><time>2026-04-18T11:52:37.999Z</time></trkpt><trkpt lat="45.48471929328009" lon="11.028796923833253"><ele>93.0</ele><time>2026-04-18T11:52:39.999Z</time></trkpt><trkpt lat="45.484636325900595" lon="11.028778924614977"><ele>92.83333333333333</ele><time>2026-04-18T11:52:41.999Z</time></trkpt><trkpt lat="45.48455787297637" lon="11.028765931107193"><ele>92.66666666666667</ele><time>2026-04-18T11:52:43.999Z</time></trkpt><trkpt lat="45.48447975919568" lon="11.028734660698024"><ele>92.5</ele><time>2026-04-18T11:52:45.999Z</time></trkpt><trkpt lat="45.48440604167082" lon="11.028679649694135"><ele>92.33333333333334</ele><time>2026-04-18T11:52:47.999Z</time></trkpt><trkpt lat="45.48436152418764" lon="11.028584710926708"><ele>92.16666666666667</ele><time>2026-04-18T11:52:49.999Z</time></trkpt><trkpt lat="45.4843361715809" lon="11.028459318832267"><ele>92.0</ele><time>2026-04-18T11:52:51.999Z</time></trkpt><trkpt lat="45.48431696458448" lon="11.028340134228193"><ele>92.0</ele><time>2026-04-18T11:52:53.999Z</time></trkpt><trkpt lat="45.484297614163886" lon="11.028220380068703"><ele>92.0</ele><time>2026-04-18T11:52:55.999Z</time></trkpt><trkpt lat="45.48428085719394" lon="11.028098354040553"><ele>92.0</ele><time>2026-04-18T11:52:57.999Z</time></trkpt><trkpt lat="45.48425701161308" lon="11.027984314871679"><ele>92.0</ele><time>2026-04-18T11:52:59.999Z</time></trkpt><trkpt lat="45.484240483667776" lon="11.027873653964878"><ele>92.0</ele><time>2026-04-18T11:53:01.999Z</time></trkpt><trkpt lat="45.48422172430641" lon="11.027766826835633"><ele>92.0</ele><time>2026-04-18T11:53:03.999Z</time></trkpt><trkpt lat="45.48419370858078" lon="11.027668314791704"><ele>92.0</ele><time>2026-04-18T11:53:05.999Z</time></trkpt><trkpt lat="45.48417487538674" lon="11.027567364221555"><ele>92.0</ele><time>2026-04-18T11:53:07.999Z</time></trkpt><trkpt lat="45.48415013334528" lon="11.02746826329068"><ele>92.0</ele><time>2026-04-18T11:53:09.999Z</time></trkpt><trkpt lat="45.484126270890414" lon="11.02736514835165"><ele>92.0</ele><time>2026-04-18T11:53:11.999Z</time></trkpt><trkpt lat="45.48408775858604" lon="11.027265801045326"><ele>92.0</ele><time>2026-04-18T11:53:13.998Z</time></trkpt><trkpt lat="45.484039312593765" lon="11.027168986983195"><ele>92.0</ele><time>2026-04-18T11:53:15.998Z</time></trkpt><trkpt lat="45.483989637748536" lon="11.02706409646672"><ele>92.16666666666667</ele><time>2026-04-18T11:53:17.998Z</time></trkpt><trkpt lat="45.48393858832961" lon="11.026965355334072"><ele>92.33333333333334</ele><time>2026-04-18T11:53:19.998Z</time></trkpt><trkpt lat="45.48389685453404" lon="11.026854515493705"><ele>92.5</ele><time>2026-04-18T11:53:21.998Z</time></trkpt><trkpt lat="45.4838535584147" lon="11.026744101948072"><ele>92.66666666666667</ele><time>2026-04-18T11:53:23.998Z</time></trkpt><trkpt lat="45.48381918364471" lon="11.026630054464004"><ele>92.83333333333333</ele><time>2026-04-18T11:53:25.998Z</time></trkpt><trkpt lat="45.48377840350454" lon="11.026505625963141"><ele>93.0</ele><time>2026-04-18T11:53:27.998Z</time></trkpt><trkpt lat="45.48373807036213" lon="11.026401344442345"><ele>92.80000000000001</ele><time>2026-04-18T11:53:29.998Z</time></trkpt><trkpt lat="45.48371203370227" lon="11.0262773548005"><ele>92.6</ele><time>2026-04-18T11:53:31.998Z</time></trkpt><trkpt lat="45.483676983662576" lon="11.026158199506515"><ele>92.4</ele><time>2026-04-18T11:53:34Z</time></trkpt><trkpt lat="45.4836444329513" lon="11.026045301492983"><ele>92.19999999999999</ele><time>2026-04-18T11:53:36Z</time></trkpt><trkpt lat="45.48361575859804" lon="11.025915472119392"><ele>92.0</ele><time>2026-04-18T11:53:38Z</time></trkpt><trkpt lat="45.48359215132769" lon="11.025788927534398"><ele>92.0</ele><time>2026-04-18T11:53:40Z</time></trkpt><trkpt lat="45.48355015071767" lon="11.02567812899599"><ele>92.0</ele><time>2026-04-18T11:53:42Z</time></trkpt><trkpt lat="45.483522741930415" lon="11.025549644019929"><ele>92.0</ele><time>2026-04-18T11:53:44Z</time></trkpt><trkpt lat="45.483499098719484" lon="11.025422286734464"><ele>92.0</ele><time>2026-04-18T11:53:46Z</time></trkpt><trkpt lat="45.483473342829555" lon="11.025324478528505"><ele>92.0</ele><time>2026-04-18T11:53:48Z</time></trkpt><trkpt lat="45.483469510353075" lon="11.02522428732664"><ele>92.0</ele><time>2026-04-18T11:54:03Z</time></trkpt><trkpt lat="45.483447558898284" lon="11.025121831500302"><ele>92.0</ele><time>2026-04-18T11:54:06Z</time></trkpt><trkpt lat="45.48341423494125" lon="11.024997383777997"><ele>92.0</ele><time>2026-04-18T11:54:09Z</time></trkpt><trkpt lat="45.48339485740825" lon="11.024866316436889"><ele>92.0</ele><time>2026-04-18T11:54:12Z</time></trkpt><trkpt lat="45.483378854089466" lon="11.024763539004253"><ele>92.0</ele><time>2026-04-18T11:54:14Z</time></trkpt><trkpt lat="45.48336556977029" lon="11.024655275848653"><ele>92.0</ele><time>2026-04-18T11:54:16Z</time></trkpt><trkpt lat="45.4833405888691" lon="11.0245568206266"><ele>92.0</ele><time>2026-04-18T11:54:17.999Z</time></trkpt><trkpt lat="45.48333287691286" lon="11.024439148930876"><ele>92.5</ele><time>2026-04-18T11:54:19.999Z</time></trkpt><trkpt lat="45.483310167056636" lon="11.024327795182444"><ele>93.0</ele><time>2026-04-18T11:54:21.999Z</time></trkpt><trkpt lat="45.48329313775796" lon="11.024212649841319"><ele>93.5</ele><time>2026-04-18T11:54:23.999Z</time></trkpt><trkpt lat="45.48327248189485" lon="11.024098695217564"><ele>94.0</ele><time>2026-04-18T11:54:25.999Z</time></trkpt><trkpt lat="45.48325586777721" lon="11.023986907283966"><ele>94.5</ele><time>2026-04-18T11:54:27.999Z</time></trkpt><trkpt lat="45.483242174517656" lon="11.023854529350848"><ele>95.0</ele><time>2026-04-18T11:54:29.999Z</time></trkpt><trkpt lat="45.48321743806616" lon="11.023726856684858"><ele>94.8</ele><time>2026-04-18T11:54:31.999Z</time></trkpt><trkpt lat="45.4831619975949" lon="11.023614754337837"><ele>94.6</ele><time>2026-04-18T11:54:33.999Z</time></trkpt><trkpt lat="45.48308543319987" lon="11.023529787620467"><ele>94.4</ele><time>2026-04-18T11:54:35.999Z</time></trkpt><trkpt lat="45.48300026810178" lon="11.023457384576663"><ele>94.2</ele><time>2026-04-18T11:54:37.999Z</time></trkpt><trkpt lat="45.48289788093974" lon="11.023443056940154"><ele>94.0</ele><time>2026-04-18T11:54:39.999Z</time></trkpt><trkpt lat="45.482801331814805" lon="11.023446880590658"><ele>94.0</ele><time>2026-04-18T11:54:41.999Z</time></trkpt><trkpt lat="45.48271134893179" lon="11.023462630586852"><ele>94.0</ele><time>2026-04-18T11:54:43.999Z</time></trkpt><trkpt lat="45.48262257190591" lon="11.02346605251316"><ele>94.0</ele><time>2026-04-18T11:54:45.999Z</time></trkpt><trkpt lat="45.48253591560677" lon="11.023479277766853"><ele>94.0</ele><time>2026-04-18T11:54:47.999Z</time></trkpt><trkpt lat="45.48243619451041" lon="11.023491254379675"><ele>94.0</ele><time>2026-04-18T11:54:49.999Z</time></trkpt><trkpt lat="45.48235635445107" lon="11.023508638914732"><ele>94.0</ele><time>2026-04-18T11:54:51.999Z</time></trkpt><trkpt lat="45.48225999783325" lon="11.023518131407918"><ele>94.0</ele><time>2026-04-18T11:54:53.999Z</time></trkpt><trkpt lat="45.48215473328161" lon="11.023517589053034"><ele>94.0</ele><time>2026-04-18T11:54:55.999Z</time></trkpt><trkpt lat="45.482059622605036" lon="11.023506924541188"><ele>94.0</ele><time>2026-04-18T11:54:57.999Z</time></trkpt><trkpt lat="45.481971958423394" lon="11.023522525271499"><ele>94.0</ele><time>2026-04-18T11:54:59.999Z</time></trkpt><trkpt lat="45.4818927165728" lon="11.023522380329977"><ele>94.0</ele><time>2026-04-18T11:55:01.999Z</time></trkpt><trkpt lat="45.48179671868046" lon="11.023519026029112"><ele>94.0</ele><time>2026-04-18T11:55:03.999Z</time></trkpt><trkpt lat="45.48171449815119" lon="11.023523158622172"><ele>94.0</ele><time>2026-04-18T11:55:05.999Z</time></trkpt><trkpt lat="45.481620345157864" lon="11.02355119056619"><ele>94.0</ele><time>2026-04-18T11:55:07.999Z</time></trkpt><trkpt lat="45.48152784219975" lon="11.023548302103617"><ele>94.0</ele><time>2026-04-18T11:55:09.999Z</time></trkpt><trkpt lat="45.48144472625151" lon="11.023569412316865"><ele>94.0</ele><time>2026-04-18T11:55:11.999Z</time></trkpt><trkpt lat="45.48136187226886" lon="11.023578957741822"><ele>94.0</ele><time>2026-04-18T11:55:13.999Z</time></trkpt><trkpt lat="45.48129287834384" lon="11.023591784039615"><ele>93.42857142857143</ele><time>2026-04-18T11:55:15.999Z</time></trkpt><trkpt lat="45.48121793335606" lon="11.023618080654487"><ele>92.85714285714286</ele><time>2026-04-18T11:55:17.999Z</time></trkpt><trkpt lat="45.48113763935194" lon="11.023604115742769"><ele>92.28571428571428</ele><time>2026-04-18T11:55:20.998Z</time></trkpt><trkpt lat="45.48112333755942" lon="11.023506902365579"><ele>91.71428571428572</ele><time>2026-04-18T11:55:23.998Z</time></trkpt><trkpt lat="45.48111577998567" lon="11.023415847318157"><ele>91.14285714285715</ele><time>2026-04-18T11:55:27.998Z</time></trkpt><trkpt lat="45.48104130489195" lon="11.023378588552601"><ele>90.57142857142857</ele><time>2026-04-18T11:55:30.998Z</time></trkpt><trkpt lat="45.480973498235926" lon="11.023384445415434"><ele>90.0</ele><time>2026-04-18T11:55:32.998Z</time></trkpt><trkpt lat="45.48089551998914" lon="11.023393247806025"><ele>90.14285714285714</ele><time>2026-04-18T11:55:35.998Z</time></trkpt><trkpt lat="45.480894709317" lon="11.023288605689443"><ele>90.28571428571429</ele><time>2026-04-18T11:55:42Z</time></trkpt><trkpt lat="45.480902386089966" lon="11.023197973453227"><ele>90.42857142857143</ele><time>2026-04-18T11:55:45Z</time></trkpt><trkpt lat="45.48087714958568" lon="11.023080017756417"><ele>90.57142857142857</ele><time>2026-04-18T11:55:48Z</time></trkpt><trkpt lat="45.48085564625137" lon="11.02299033060607"><ele>90.71428571428572</ele><time>2026-04-18T11:55:50Z</time></trkpt><trkpt lat="45.4808376296789" lon="11.022904232777417"><ele>90.85714285714286</ele><time>2026-04-18T11:55:52Z</time></trkpt><trkpt lat="45.480812045884285" lon="11.022778912778982"><ele>91.0</ele><time>2026-04-18T11:55:55Z</time></trkpt><trkpt lat="45.480789656333606" lon="11.022663852688412"><ele>91.0</ele><time>2026-04-18T11:55:58Z</time></trkpt><trkpt lat="45.48085206984431" lon="11.022572220923113"><ele>91.0</ele><time>2026-04-18T11:56:01Z</time></trkpt><trkpt lat="45.48091514216346" lon="11.022574044481498"><ele>91.0</ele><time>2026-04-18T11:56:03Z</time></trkpt><trkpt lat="45.481011746594284" lon="11.02256258086093"><ele>91.0</ele><time>2026-04-18T11:56:06Z</time></trkpt><trkpt lat="45.48107748797578" lon="11.022561787481402"><ele>91.0</ele><time>2026-04-18T11:56:09Z</time></trkpt><trkpt lat="45.481169669090136" lon="11.022556319907022"><ele>91.0</ele><time>2026-04-18T11:56:12Z</time></trkpt><trkpt lat="45.48123368822902" lon="11.022546706930141"><ele>91.28571428571429</ele><time>2026-04-18T11:56:14Z</time></trkpt><trkpt lat="45.481301288228565" lon="11.022542286339538"><ele>91.57142857142857</ele><time>2026-04-18T11:56:16Z</time></trkpt><trkpt lat="45.48137261996562" lon="11.022532345328221"><ele>91.85714285714286</ele><time>2026-04-18T11:56:18Z</time></trkpt><trkpt lat="45.48143733278222" lon="11.022526900513922"><ele>92.14285714285714</ele><time>2026-04-18T11:56:20Z</time></trkpt><trkpt lat="45.48150937010544" lon="11.022526162888834"><ele>92.42857142857143</ele><time>2026-04-18T11:56:22Z</time></trkpt><trkpt lat="45.481574056591114" lon="11.022521227944699"><ele>92.71428571428572</ele><time>2026-04-18T11:56:24Z</time></trkpt><trkpt lat="45.481640998937486" lon="11.022510207350242"><ele>93.0</ele><time>2026-04-18T11:56:26Z</time></trkpt><trkpt lat="45.48170668418116" lon="11.022497919211869"><ele>93.0</ele><time>2026-04-18T11:56:28Z</time></trkpt><trkpt lat="45.48177866048511" lon="11.022484919811188"><ele>93.0</ele><time>2026-04-18T11:56:29.999Z</time></trkpt><trkpt lat="45.481846018887985" lon="11.022462068236427"><ele>93.0</ele><time>2026-04-18T11:56:31.999Z</time></trkpt><trkpt lat="45.481908915177186" lon="11.022427152995181"><ele>93.0</ele><time>2026-04-18T11:56:33.999Z</time></trkpt><trkpt lat="45.481982091151366" lon="11.022352076939752"><ele>93.0</ele><time>2026-04-18T11:56:36.999Z</time></trkpt><trkpt lat="45.48199444685934" lon="11.022217178454776"><ele>93.0</ele><time>2026-04-18T11:56:39.999Z</time></trkpt><trkpt lat="45.48196228608374" lon="11.022103943768924"><ele>92.60000000000001</ele><time>2026-04-18T11:56:41.999Z</time></trkpt><trkpt lat="45.48192775737438" lon="11.021975103570762"><ele>92.2</ele><time>2026-04-18T11:56:43.999Z</time></trkpt><trkpt lat="45.481916210158424" lon="11.021808957626963"><ele>91.8</ele><time>2026-04-18T11:56:45.999Z</time></trkpt><trkpt lat="45.481903753820475" lon="11.021703502886318"><ele>91.4</ele><time>2026-04-18T11:56:46.999Z</time></trkpt><trkpt lat="45.48188058214745" lon="11.021523534424695"><ele>91.0</ele><time>2026-04-18T11:56:48.999Z</time></trkpt><trkpt lat="45.48185823500139" lon="11.021417254798113"><ele>90.83333333333333</ele><time>2026-04-18T11:56:50.999Z</time></trkpt><trkpt lat="45.48182862522058" lon="11.021297745661292"><ele>90.66666666666666</ele><time>2026-04-18T11:56:52.999Z</time></trkpt><trkpt lat="45.48182240248186" lon="11.021185171244337"><ele>90.5</ele><time>2026-04-18T11:56:54.999Z</time></trkpt><trkpt lat="45.4818048579708" lon="11.021087597433054"><ele>90.33333333333333</ele><time>2026-04-18T11:56:56.999Z</time></trkpt><trkpt lat="45.481789883422856" lon="11.02096245193222"><ele>90.16666666666667</ele><time>2026-04-18T11:56:59.999Z</time></trkpt><trkpt lat="45.481772813666474" lon="11.02086860908075"><ele>90.0</ele><time>2026-04-18T11:57:01.999Z</time></trkpt><trkpt lat="45.48175777318527" lon="11.020757729867656"><ele>89.83333333333333</ele><time>2026-04-18T11:57:03.999Z</time></trkpt><trkpt lat="45.48173825771005" lon="11.020665464103383"><ele>89.66666666666667</ele><time>2026-04-18T11:57:05.999Z</time></trkpt><trkpt lat="45.48172682030159" lon="11.020545029765643"><ele>89.5</ele><time>2026-04-18T11:57:07.999Z</time></trkpt><trkpt lat="45.48171010961838" lon="11.020430695457353"><ele>89.33333333333334</ele><time>2026-04-18T11:57:09.999Z</time></trkpt><trkpt lat="45.48169321952501" lon="11.02033670089928"><ele>89.16666666666667</ele><time>2026-04-18T11:57:11.999Z</time></trkpt><trkpt lat="45.48168668147692" lon="11.020226777936255"><ele>89.0</ele><time>2026-04-18T11:57:13.999Z</time></trkpt><trkpt lat="45.48174860215956" lon="11.02017769547281"><ele>89.0</ele><time>2026-04-18T11:57:15.999Z</time></trkpt><trkpt lat="45.4818273111769" lon="11.02019274193178"><ele>89.0</ele><time>2026-04-18T11:57:19.999Z</time></trkpt><trkpt lat="45.481899777326426" lon="11.020179514736904"><ele>89.0</ele><time>2026-04-18T11:57:22.999Z</time></trkpt><trkpt lat="45.48197794114769" lon="11.020169039876105"><ele>89.0</ele><time>2026-04-18T11:57:25.999Z</time></trkpt><trkpt lat="45.482062731454064" lon="11.020143368073116"><ele>89.0</ele><time>2026-04-18T11:57:28.999Z</time></trkpt><trkpt lat="45.48215635834368" lon="11.020136750010002"><ele>89.0</ele><time>2026-04-18T11:57:31.998Z</time></trkpt><trkpt lat="45.482221433551054" lon="11.020118204583683"><ele>89.5</ele><time>2026-04-18T11:57:33.998Z</time></trkpt><trkpt lat="45.48229039305862" lon="11.020096979288711"><ele>90.0</ele><time>2026-04-18T11:57:35.998Z</time></trkpt><trkpt lat="45.48235578183284" lon="11.02008480621399"><ele>90.5</ele><time>2026-04-18T11:57:37.998Z</time></trkpt><trkpt lat="45.482445896955625" lon="11.020066067754385"><ele>91.0</ele><time>2026-04-18T11:57:40.998Z</time></trkpt><trkpt lat="45.48252471806916" lon="11.02004450827131"><ele>91.5</ele><time>2026-04-18T11:57:42.998Z</time></trkpt><trkpt lat="45.48260002170472" lon="11.020029655709392"><ele>92.0</ele><time>2026-04-18T11:57:45Z</time></trkpt><trkpt lat="45.482677373046144" lon="11.020023948446438"><ele>92.0</ele><time>2026-04-18T11:57:47Z</time></trkpt><trkpt lat="45.48276188500456" lon="11.020014124473327"><ele>92.0</ele><time>2026-04-18T11:57:49Z</time></trkpt><trkpt lat="45.4828356927873" lon="11.019999633696012"><ele>92.0</ele><time>2026-04-18T11:57:51Z</time></trkpt><trkpt lat="45.48291401536956" lon="11.019979129054848"><ele>92.0</ele><time>2026-04-18T11:57:53Z</time></trkpt><trkpt lat="45.482988427542146" lon="11.019953176667592"><ele>92.0</ele><time>2026-04-18T11:57:55Z</time></trkpt><trkpt lat="45.483060432759885" lon="11.0199223027061"><ele>92.0</ele><time>2026-04-18T11:57:57Z</time></trkpt><trkpt lat="45.48313078766358" lon="11.019884607373289"><ele>92.28571428571429</ele><time>2026-04-18T11:57:59Z</time></trkpt><trkpt lat="45.483186036395914" lon="11.019832752438113"><ele>92.57142857142857</ele><time>2026-04-18T11:58:01Z</time></trkpt><trkpt lat="45.48322450347237" lon="11.0197382070152"><ele>92.85714285714286</ele><time>2026-04-18T11:58:03Z</time></trkpt><trkpt lat="45.48321477983054" lon="11.019628879348959"><ele>93.14285714285714</ele><time>2026-04-18T11:58:05Z</time></trkpt><trkpt lat="45.483230783865835" lon="11.019524853580865"><ele>93.42857142857142</ele><time>2026-04-18T11:58:07Z</time></trkpt><trkpt lat="45.483246407596226" lon="11.019430600655198"><ele>93.71428571428571</ele><time>2026-04-18T11:58:09Z</time></trkpt><trkpt lat="45.48324897326281" lon="11.019319598233137"><ele>94.0</ele><time>2026-04-18T11:58:11Z</time></trkpt><trkpt lat="45.483255053999486" lon="11.019221247555512"><ele>93.85714285714286</ele><time>2026-04-18T11:58:13Z</time></trkpt><trkpt lat="45.48326630015892" lon="11.019127000115347"><ele>93.71428571428571</ele><time>2026-04-18T11:58:16Z</time></trkpt><trkpt lat="45.48327494737325" lon="11.019036884853486"><ele>93.57142857142858</ele><time>2026-04-18T11:58:30Z</time></trkpt><trkpt lat="45.4832223938828" lon="11.018961087869256"><ele>93.42857142857143</ele><time>2026-04-18T11:58:32Z</time></trkpt><trkpt lat="45.48315029623255" lon="11.018938125164587"><ele>93.28571428571429</ele><time>2026-04-18T11:58:33.999Z</time></trkpt><trkpt lat="45.48310802595929" lon="11.01887114138169"><ele>93.14285714285715</ele><time>2026-04-18T11:58:35.999Z</time></trkpt><trkpt lat="45.4830172749852" lon="11.01885001908844"><ele>93.0</ele><time>2026-04-18T11:58:38.999Z</time></trkpt><trkpt lat="45.48292794532616" lon="11.018807623903669"><ele>92.66666666666667</ele><time>2026-04-18T11:58:40.999Z</time></trkpt><trkpt lat="45.48284232734734" lon="11.018766952309623"><ele>92.33333333333333</ele><time>2026-04-18T11:58:42.999Z</time></trkpt><trkpt lat="45.48275024473776" lon="11.018726680993359"><ele>92.0</ele><time>2026-04-18T11:58:44.999Z</time></trkpt><trkpt lat="45.48267202090358" lon="11.018688951695697"><ele>91.66666666666666</ele><time>2026-04-18T11:58:46.999Z</time></trkpt><trkpt lat="45.482597286474494" lon="11.018655222885275"><ele>91.33333333333333</ele><time>2026-04-18T11:58:48.999Z</time></trkpt><trkpt lat="45.48251576852915" lon="11.018637853484698"><ele>91.0</ele><time>2026-04-18T11:58:50.999Z</time></trkpt><trkpt lat="45.48241829185312" lon="11.018607058191414"><ele>91.0</ele><time>2026-04-18T11:58:52.999Z</time></trkpt><trkpt lat="45.48232060947773" lon="11.018589763059929"><ele>91.0</ele><time>2026-04-18T11:58:54.999Z</time></trkpt><trkpt lat="45.48222691408102" lon="11.018583540512859"><ele>91.0</ele><time>2026-04-18T11:58:56.999Z</time></trkpt><trkpt lat="45.48212368835932" lon="11.018573385502963"><ele>91.0</ele><time>2026-04-18T11:58:58.999Z</time></trkpt><trkpt lat="45.48201347292302" lon="11.018574966534661"><ele>91.0</ele><time>2026-04-18T11:59:00.999Z</time></trkpt><trkpt lat="45.481905873307525" lon="11.018579485609898"><ele>91.0</ele><time>2026-04-18T11:59:02.999Z</time></trkpt><trkpt lat="45.48180768043849" lon="11.018584457083579"><ele>91.0</ele><time>2026-04-18T11:59:04.999Z</time></trkpt><trkpt lat="45.48177344584502" lon="11.018488509283266"><ele>91.0</ele><time>2026-04-18T11:59:07.999Z</time></trkpt><trkpt lat="45.4817725083955" lon="11.018368998389446"><ele>91.0</ele><time>2026-04-18T11:59:09.999Z</time></trkpt><trkpt lat="45.48175364813075" lon="11.018239019735395"><ele>91.0</ele><time>2026-04-18T11:59:11.999Z</time></trkpt><trkpt lat="45.481749262399056" lon="11.018096822302157"><ele>91.0</ele><time>2026-04-18T11:59:13.999Z</time></trkpt><trkpt lat="45.48174896702672" lon="11.017961942962792"><ele>91.0</ele><time>2026-04-18T11:59:15.999Z</time></trkpt><trkpt lat="45.48174559651711" lon="11.017820285250686"><ele>91.0</ele><time>2026-04-18T11:59:17.999Z</time></trkpt><trkpt lat="45.481762918485565" lon="11.017691439017849"><ele>91.0</ele><time>2026-04-18T11:59:19.999Z</time></trkpt><trkpt lat="45.481773099580266" lon="11.017560369707462"><ele>91.0</ele><time>2026-04-18T11:59:21.999Z</time></trkpt><trkpt lat="45.48179535283044" lon="11.017425635862102"><ele>91.19999999999999</ele><time>2026-04-18T11:59:23.999Z</time></trkpt><trkpt lat="45.48181460321963" lon="11.01729888963512"><ele>91.39999999999999</ele><time>2026-04-18T11:59:25.999Z</time></trkpt><trkpt lat="45.481819300874534" lon="11.017161891363775"><ele>91.6</ele><time>2026-04-18T11:59:27.999Z</time></trkpt><trkpt lat="45.481818515809245" lon="11.017029109085613"><ele>91.8</ele><time>2026-04-18T11:59:29.999Z</time></trkpt><trkpt lat="45.48180192647686" lon="11.016901592531267"><ele>92.0</ele><time>2026-04-18T11:59:31.999Z</time></trkpt><trkpt lat="45.481791580118355" lon="11.016772909813316"><ele>92.5</ele><time>2026-04-18T11:59:33.998Z</time></trkpt><trkpt lat="45.48177884313494" lon="11.01665182917233"><ele>93.0</ele><time>2026-04-18T11:59:35.998Z</time></trkpt><trkpt lat="45.48176843041922" lon="11.016532681750103"><ele>93.5</ele><time>2026-04-18T11:59:37.998Z</time></trkpt><trkpt lat="45.48176490281805" lon="11.01641150330192"><ele>94.0</ele><time>2026-04-18T11:59:39.998Z</time></trkpt><trkpt lat="45.481771500714686" lon="11.016293925967682"><ele>94.5</ele><time>2026-04-18T11:59:41.998Z</time></trkpt><trkpt lat="45.481766703733406" lon="11.016173416935498"><ele>95.0</ele><time>2026-04-18T11:59:43.998Z</time></trkpt><trkpt lat="45.48175628197487" lon="11.016069936874011"><ele>95.0</ele><time>2026-04-18T11:59:45.998Z</time></trkpt><trkpt lat="45.481719450955524" lon="11.01597846305145"><ele>95.0</ele><time>2026-04-18T11:59:47.998Z</time></trkpt><trkpt lat="45.48165238229889" lon="11.015935035401212"><ele>95.0</ele><time>2026-04-18T11:59:49.998Z</time></trkpt><trkpt lat="45.48157645306345" lon="11.015933928799985"><ele>95.0</ele><time>2026-04-18T11:59:52Z</time></trkpt><trkpt lat="45.48149765506831" lon="11.01593984866509"><ele>95.0</ele><time>2026-04-18T11:59:54Z</time></trkpt><trkpt lat="45.481422671466994" lon="11.01595646367268"><ele>95.0</ele><time>2026-04-18T11:59:56Z</time></trkpt><trkpt lat="45.48134967907834" lon="11.01596234095759"><ele>94.66666666666667</ele><time>2026-04-18T11:59:58Z</time></trkpt><trkpt lat="45.48124227256138" lon="11.015994550193666"><ele>94.33333333333334</ele><time>2026-04-18T12:00:01Z</time></trkpt><trkpt lat="45.481163611162835" lon="11.0159913143542"><ele>94.0</ele><time>2026-04-18T12:00:03Z</time></trkpt><trkpt lat="45.48108709636745" lon="11.015971135593565"><ele>93.66666666666667</ele><time>2026-04-18T12:00:05Z</time></trkpt><trkpt lat="45.48105140766143" lon="11.015876671945417"><ele>93.33333333333333</ele><time>2026-04-18T12:00:07Z</time></trkpt><trkpt lat="45.481012661428096" lon="11.015779410558725"><ele>93.0</ele><time>2026-04-18T12:00:09Z</time></trkpt><trkpt lat="45.480967539043554" lon="11.015666917972514"><ele>95.5</ele><time>2026-04-18T12:00:12Z</time></trkpt><trkpt lat="45.48091725769992" lon="11.015585072349728"><ele>98.0</ele><time>2026-04-18T12:00:15Z</time></trkpt><trkpt lat="45.480891335573446" lon="11.015487849111258"><ele>100.5</ele><time>2026-04-18T12:00:18Z</time></trkpt><trkpt lat="45.48082295888164" lon="11.01543441353139"><ele>103.0</ele><time>2026-04-18T12:00:21Z</time></trkpt><trkpt lat="45.480730367009656" lon="11.015447841369088"><ele>105.5</ele><time>2026-04-18T12:00:24Z</time></trkpt><trkpt lat="45.48066009952588" lon="11.015472800107803"><ele>108.0</ele><time>2026-04-18T12:00:26Z</time></trkpt><trkpt lat="45.48056696336398" lon="11.01548730093697"><ele>108.0</ele><time>2026-04-18T12:00:28Z</time></trkpt><trkpt lat="45.48046984254665" lon="11.015516350097796"><ele>108.0</ele><time>2026-04-18T12:00:30Z</time></trkpt><trkpt lat="45.480390015031645" lon="11.01553629791083"><ele>108.0</ele><time>2026-04-18T12:00:32Z</time></trkpt><trkpt lat="45.480303377879636" lon="11.015534399626056"><ele>108.0</ele><time>2026-04-18T12:00:33.999Z</time></trkpt><trkpt lat="45.48021776069957" lon="11.015527218994963"><ele>108.0</ele><time>2026-04-18T12:00:35.999Z</time></trkpt><trkpt lat="45.48013569011689" lon="11.015529321109732"><ele>108.0</ele><time>2026-04-18T12:00:37.999Z</time></trkpt><trkpt lat="45.480061967495025" lon="11.015523447086663"><ele>109.33333333333333</ele><time>2026-04-18T12:00:39.999Z</time></trkpt><trkpt lat="45.47999365674168" lon="11.015504731751438"><ele>110.66666666666666</ele><time>2026-04-18T12:00:41.999Z</time></trkpt><trkpt lat="45.47992122846308" lon="11.015491857312046"><ele>112.0</ele><time>2026-04-18T12:00:43.999Z</time></trkpt><trkpt lat="45.4798516475738" lon="11.01550116772167"><ele>113.33333333333333</ele><time>2026-04-18T12:00:45.999Z</time></trkpt><trkpt lat="45.47978587322327" lon="11.015548659561109"><ele>114.66666666666666</ele><time>2026-04-18T12:00:47.999Z</time></trkpt><trkpt lat="45.479705035679366" lon="11.01563156809664"><ele>116.0</ele><time>2026-04-18T12:00:49.999Z</time></trkpt><trkpt lat="45.479586712046576" lon="11.015712291919025"><ele>116.0</ele><time>2026-04-18T12:00:51.999Z</time></trkpt><trkpt lat="45.47952148914259" lon="11.015746870633109"><ele>116.0</ele><time>2026-04-18T12:00:52.999Z</time></trkpt><trkpt lat="45.47940789191624" lon="11.015827746321147"><ele>116.0</ele><time>2026-04-18T12:00:54.999Z</time></trkpt><trkpt lat="45.47934703242488" lon="11.015871558965326"><ele>116.0</ele><time>2026-04-18T12:00:55.999Z</time></trkpt><trkpt lat="45.479284459175545" lon="11.015905413536585"><ele>116.0</ele><time>2026-04-18T12:00:56.999Z</time></trkpt><trkpt lat="45.47915659435176" lon="11.015958488445017"><ele>112.6</ele><time>2026-04-18T12:00:58.999Z</time></trkpt><trkpt lat="45.479087496015104" lon="11.015985796888074"><ele>109.19999999999999</ele><time>2026-04-18T12:00:59.999Z</time></trkpt><trkpt lat="45.47899346520852" lon="11.01602265344954"><ele>105.80000000000001</ele><time>2026-04-18T12:01:01.999Z</time></trkpt><trkpt lat="45.478883774883066" lon="11.016035435342282"><ele>102.4</ele><time>2026-04-18T12:01:03.999Z</time></trkpt><trkpt lat="45.47881651370096" lon="11.016023357690926"><ele>99.0</ele><time>2026-04-18T12:01:04.999Z</time></trkpt><trkpt lat="45.47870588654752" lon="11.015988310587808"><ele>99.0</ele><time>2026-04-18T12:01:06.999Z</time></trkpt><trkpt lat="45.47859147766357" lon="11.015962584661567"><ele>99.0</ele><time>2026-04-18T12:01:08.999Z</time></trkpt><trkpt lat="45.47852789202116" lon="11.015959247432864"><ele>99.0</ele><time>2026-04-18T12:01:09.999Z</time></trkpt><trkpt lat="45.47842401311943" lon="11.015926325990302"><ele>99.0</ele><time>2026-04-18T12:01:11.999Z</time></trkpt><trkpt lat="45.478309010920874" lon="11.015921760397882"><ele>99.0</ele><time>2026-04-18T12:01:13.999Z</time></trkpt><trkpt lat="45.47817432372458" lon="11.015931873734239"><ele>99.0</ele><time>2026-04-18T12:01:15.999Z</time></trkpt><trkpt lat="45.47807288364574" lon="11.015926181929487"><ele>99.0</ele><time>2026-04-18T12:01:17.999Z</time></trkpt><trkpt lat="45.477961460071974" lon="11.015955167634578"><ele>99.0</ele><time>2026-04-18T12:01:19.999Z</time></trkpt><trkpt lat="45.47785598692456" lon="11.015961116991953"><ele>99.0</ele><time>2026-04-18T12:01:21.999Z</time></trkpt><trkpt lat="45.47775004953694" lon="11.015965758253843"><ele>99.0</ele><time>2026-04-18T12:01:23.999Z</time></trkpt><trkpt lat="45.47764310635476" lon="11.015960373043889"><ele>98.6</ele><time>2026-04-18T12:01:25.999Z</time></trkpt><trkpt lat="45.477544316309285" lon="11.015936003999105"><ele>98.2</ele><time>2026-04-18T12:01:27.999Z</time></trkpt><trkpt lat="45.477460006734496" lon="11.015905448685631"><ele>97.8</ele><time>2026-04-18T12:01:29.999Z</time></trkpt><trkpt lat="45.477386391952145" lon="11.015860554345707"><ele>97.39999999999999</ele><time>2026-04-18T12:01:31.999Z</time></trkpt><trkpt lat="45.47730208388129" lon="11.015828476387172"><ele>97.0</ele><time>2026-04-18T12:01:33.998Z</time></trkpt><trkpt lat="45.47721576880715" lon="11.015767349086989"><ele>99.19999999999999</ele><time>2026-04-18T12:01:35.998Z</time></trkpt><trkpt lat="45.477129489008355" lon="11.015721791380765"><ele>101.4</ele><time>2026-04-18T12:01:37.998Z</time></trkpt><trkpt lat="45.47702583982365" lon="11.015717155067753"><ele>103.60000000000001</ele><time>2026-04-18T12:01:39.998Z</time></trkpt><trkpt lat="45.47693388165136" lon="11.015677927899244"><ele>105.80000000000001</ele><time>2026-04-18T12:01:41.998Z</time></trkpt><trkpt lat="45.476832824763925" lon="11.015668807933304"><ele>108.0</ele><time>2026-04-18T12:01:43.998Z</time></trkpt><trkpt lat="45.47673096032426" lon="11.015653720509592"><ele>108.0</ele><time>2026-04-18T12:01:45.998Z</time></trkpt><trkpt lat="45.47663053495668" lon="11.015605695635285"><ele>108.00000000000001</ele><time>2026-04-18T12:01:47.998Z</time></trkpt><trkpt lat="45.476526537364016" lon="11.015533587717254"><ele>108.00000000000001</ele><time>2026-04-18T12:01:49.998Z</time></trkpt><trkpt lat="45.476440947189985" lon="11.015486490732789"><ele>108.0</ele><time>2026-04-18T12:01:51.998Z</time></trkpt><trkpt lat="45.47635544680713" lon="11.015417630581045"><ele>108.0</ele><time>2026-04-18T12:01:53.998Z</time></trkpt><trkpt lat="45.47627047141978" lon="11.015360880776106"><ele>105.60000000000001</ele><time>2026-04-18T12:01:55.998Z</time></trkpt><trkpt lat="45.476189568337304" lon="11.015302300474069"><ele>103.20000000000002</ele><time>2026-04-18T12:01:58Z</time></trkpt><trkpt lat="45.476110216951085" lon="11.015239770752826"><ele>100.8</ele><time>2026-04-18T12:02:00Z</time></trkpt><trkpt lat="45.47602636446316" lon="11.015201017532348"><ele>98.4</ele><time>2026-04-18T12:02:02Z</time></trkpt><trkpt lat="45.47593643459731" lon="11.015173048187108"><ele>96.0</ele><time>2026-04-18T12:02:04Z</time></trkpt><trkpt lat="45.475848585276474" lon="11.0151503690184"><ele>96.0</ele><time>2026-04-18T12:02:06Z</time></trkpt><trkpt lat="45.475758371380685" lon="11.015128159518289"><ele>96.0</ele><time>2026-04-18T12:02:08Z</time></trkpt><trkpt lat="45.47566896865101" lon="11.015114536472899"><ele>96.0</ele><time>2026-04-18T12:02:10Z</time></trkpt><trkpt lat="45.475576404754676" lon="11.015087794445133"><ele>96.0</ele><time>2026-04-18T12:02:12Z</time></trkpt><trkpt lat="45.475488678852045" lon="11.01506126541399"><ele>96.0</ele><time>2026-04-18T12:02:14Z</time></trkpt><trkpt lat="45.4753964131665" lon="11.015041200915705"><ele>95.5</ele><time>2026-04-18T12:02:16Z</time></trkpt><trkpt lat="45.475311749662325" lon="11.015001810831762"><ele>95.0</ele><time>2026-04-18T12:02:18Z</time></trkpt><trkpt lat="45.47523621344305" lon="11.014972332402184"><ele>94.5</ele><time>2026-04-18T12:02:20Z</time></trkpt><trkpt lat="45.475157203868946" lon="11.014936551963077"><ele>94.0</ele><time>2026-04-18T12:02:22Z</time></trkpt><trkpt lat="45.47507408908419" lon="11.01491702342334"><ele>93.5</ele><time>2026-04-18T12:02:24Z</time></trkpt><trkpt lat="45.475000923721375" lon="11.014885584337376"><ele>93.0</ele><time>2026-04-18T12:02:26Z</time></trkpt><trkpt lat="45.47492073795301" lon="11.014859571946703"><ele>95.16666666666667</ele><time>2026-04-18T12:02:28Z</time></trkpt><trkpt lat="45.47483562565849" lon="11.01483021182187"><ele>97.33333333333334</ele><time>2026-04-18T12:02:30Z</time></trkpt><trkpt lat="45.474753035552986" lon="11.014806897432713"><ele>99.5</ele><time>2026-04-18T12:02:32Z</time></trkpt><trkpt lat="45.4746694113173" lon="11.014790609145523"><ele>101.66666666666667</ele><time>2026-04-18T12:02:34Z</time></trkpt><trkpt lat="45.47459596892486" lon="11.014751258729348"><ele>103.83333333333334</ele><time>2026-04-18T12:02:36Z</time></trkpt><trkpt lat="45.474518458646116" lon="11.014724500441963"><ele>106.0</ele><time>2026-04-18T12:02:37.999Z</time></trkpt><trkpt lat="45.474431130655915" lon="11.014722514650826"><ele>106.00000000000001</ele><time>2026-04-18T12:02:39.999Z</time></trkpt><trkpt lat="45.47434177540517" lon="11.01472260961585"><ele>106.0</ele><time>2026-04-18T12:02:41.999Z</time></trkpt><trkpt lat="45.474250647522176" lon="11.014700226375998"><ele>106.0</ele><time>2026-04-18T12:02:43.999Z</time></trkpt><trkpt lat="45.47416717481446" lon="11.014684344292933"><ele>106.0</ele><time>2026-04-18T12:02:45.999Z</time></trkpt><trkpt lat="45.474080975250175" lon="11.014683021902293"><ele>106.00000000000001</ele><time>2026-04-18T12:02:47.999Z</time></trkpt><trkpt lat="45.47401346654734" lon="11.01468513991529"><ele>106.0</ele><time>2026-04-18T12:02:49.999Z</time></trkpt><trkpt lat="45.473966816011455" lon="11.014618954092144"><ele>106.0</ele><time>2026-04-18T12:02:52.999Z</time></trkpt><trkpt lat="45.47394546002233" lon="11.014522375190953"><ele>106.0</ele><time>2026-04-18T12:02:55.999Z</time></trkpt><trkpt lat="45.473949320173745" lon="11.014398255165261"><ele>106.0</ele><time>2026-04-18T12:02:59.999Z</time></trkpt><trkpt lat="45.47395512175006" lon="11.01429342245994"><ele>106.0</ele><time>2026-04-18T12:03:03.999Z</time></trkpt><trkpt lat="45.47397907305033" lon="11.01420987492303"><ele>106.0</ele><time>2026-04-18T12:03:08.999Z</time></trkpt><trkpt lat="45.473950919108894" lon="11.014316963601518"><ele>106.0</ele><time>2026-04-18T12:03:20.999Z</time></trkpt><trkpt lat="45.47395106641454" lon="11.014422198305729"><ele>106.0</ele><time>2026-04-18T12:03:23.999Z</time></trkpt><trkpt lat="45.47393949688341" lon="11.01451600772238"><ele>106.0</ele><time>2026-04-18T12:03:25.999Z</time></trkpt><trkpt lat="45.473936308507966" lon="11.01462500323459"><ele>106.0</ele><time>2026-04-18T12:03:27.999Z</time></trkpt><trkpt lat="45.47390129880017" lon="11.014744390863015"><ele>106.0</ele><time>2026-04-18T12:03:29.999Z</time></trkpt><trkpt lat="45.473849339184234" lon="11.01487799400402"><ele>106.0</ele><time>2026-04-18T12:03:31.999Z</time></trkpt><trkpt lat="45.473794787959335" lon="11.015028980022324"><ele>106.0</ele><time>2026-04-18T12:03:33.999Z</time></trkpt><trkpt lat="45.47373050999177" lon="11.01514901347098"><ele>105.33333333333334</ele><time>2026-04-18T12:03:35.999Z</time></trkpt><trkpt lat="45.47366721865655" lon="11.01522368278543"><ele>104.66666666666667</ele><time>2026-04-18T12:03:37.998Z</time></trkpt><trkpt lat="45.4735965902791" lon="11.01527238311113"><ele>104.0</ele><time>2026-04-18T12:03:39.998Z</time></trkpt><trkpt lat="45.47353087559674" lon="11.015306797846941"><ele>103.33333333333334</ele><time>2026-04-18T12:03:41.998Z</time></trkpt><trkpt lat="45.47344589032502" lon="11.015301920327204"><ele>102.66666666666667</ele><time>2026-04-18T12:03:43.998Z</time></trkpt><trkpt lat="45.47336159995604" lon="11.015272695165258"><ele>102.0</ele><time>2026-04-18T12:03:46.998Z</time></trkpt><trkpt lat="45.473296805187395" lon="11.015257880878657"><ele>102.0</ele><time>2026-04-18T12:03:49.998Z</time></trkpt><trkpt lat="45.473219168896364" lon="11.015242655805078"><ele>102.0</ele><time>2026-04-18T12:03:52.998Z</time></trkpt><trkpt lat="45.47315269437914" lon="11.015227803963523"><ele>102.0</ele><time>2026-04-18T12:03:54.998Z</time></trkpt><trkpt lat="45.47305481780989" lon="11.015175873160226"><ele>102.0</ele><time>2026-04-18T12:03:57.998Z</time></trkpt><trkpt lat="45.472982443665416" lon="11.015144542111058"><ele>102.0</ele><time>2026-04-18T12:03:59.998Z</time></trkpt><trkpt lat="45.472909791194986" lon="11.015139045347214"><ele>102.0</ele><time>2026-04-18T12:04:01.998Z</time></trkpt><trkpt lat="45.4728145207122" lon="11.015120753121531"><ele>102.0</ele><time>2026-04-18T12:04:05Z</time></trkpt><trkpt lat="45.47275009421896" lon="11.015093120395239"><ele>102.0</ele><time>2026-04-18T12:04:07Z</time></trkpt><trkpt lat="45.472657766123845" lon="11.015054938779025"><ele>102.0</ele><time>2026-04-18T12:04:10Z</time></trkpt><trkpt lat="45.47259143080346" lon="11.015013304782306"><ele>102.0</ele><time>2026-04-18T12:04:12Z</time></trkpt><trkpt lat="45.47252205951909" lon="11.014961359951881"><ele>102.0</ele><time>2026-04-18T12:04:14Z</time></trkpt><trkpt lat="45.47244055118118" lon="11.014892711523819"><ele>102.0</ele><time>2026-04-18T12:04:16Z</time></trkpt><trkpt lat="45.472366361614704" lon="11.014829969183198"><ele>102.0</ele><time>2026-04-18T12:04:18Z</time></trkpt><trkpt lat="45.47229153230256" lon="11.014751064783495"><ele>102.0</ele><time>2026-04-18T12:04:20Z</time></trkpt><trkpt lat="45.472226238491174" lon="11.014652956657017"><ele>102.0</ele><time>2026-04-18T12:04:22Z</time></trkpt><trkpt lat="45.47211056061005" lon="11.014600562127221"><ele>102.0</ele><time>2026-04-18T12:04:24Z</time></trkpt><trkpt lat="45.47204232631098" lon="11.014572077267239"><ele>102.0</ele><time>2026-04-18T12:04:25Z</time></trkpt><trkpt lat="45.471974448146774" lon="11.014538905848903"><ele>101.0</ele><time>2026-04-18T12:04:26Z</time></trkpt><trkpt lat="45.471901107716036" lon="11.01452153439898"><ele>100.0</ele><time>2026-04-18T12:04:27Z</time></trkpt><trkpt lat="45.471788506248814" lon="11.014491449313224"><ele>99.0</ele><time>2026-04-18T12:04:29Z</time></trkpt><trkpt lat="45.47169633657943" lon="11.014481209303685"><ele>98.0</ele><time>2026-04-18T12:04:31Z</time></trkpt><trkpt lat="45.471628989631064" lon="11.014445199515333"><ele>97.0</ele><time>2026-04-18T12:04:33Z</time></trkpt><trkpt lat="45.47153926492478" lon="11.014442811025653"><ele>96.0</ele><time>2026-04-18T12:04:35Z</time></trkpt><trkpt lat="45.471475979855406" lon="11.014408831908016"><ele>96.0</ele><time>2026-04-18T12:04:37Z</time></trkpt><trkpt lat="45.47140008362426" lon="11.014385854415922"><ele>96.0</ele><time>2026-04-18T12:04:39Z</time></trkpt><trkpt lat="45.471312330121044" lon="11.014353205880107"><ele>96.0</ele><time>2026-04-18T12:04:41Z</time></trkpt><trkpt lat="45.47123489224206" lon="11.014331299547079"><ele>96.0</ele><time>2026-04-18T12:04:43Z</time></trkpt><trkpt lat="45.47115657246033" lon="11.014291904350415"><ele>96.0</ele><time>2026-04-18T12:04:45Z</time></trkpt><trkpt lat="45.471093357417914" lon="11.014247112478866"><ele>96.0</ele><time>2026-04-18T12:04:46.999Z</time></trkpt><trkpt lat="45.47102460512839" lon="11.014217793543361"><ele>95.85714285714285</ele><time>2026-04-18T12:04:48.999Z</time></trkpt><trkpt lat="45.47095425622146" lon="11.01418882982626"><ele>95.71428571428571</ele><time>2026-04-18T12:04:50.999Z</time></trkpt><trkpt lat="45.47087961779817" lon="11.014163295862861"><ele>95.57142857142857</ele><time>2026-04-18T12:04:52.999Z</time></trkpt><trkpt lat="45.470810179386994" lon="11.014141539220256"><ele>95.42857142857142</ele><time>2026-04-18T12:04:54.999Z</time></trkpt><trkpt lat="45.47074106365576" lon="11.014116683402701"><ele>95.28571428571429</ele><time>2026-04-18T12:04:56.999Z</time></trkpt><trkpt lat="45.47067111949073" lon="11.014093688603916"><ele>95.14285714285714</ele><time>2026-04-18T12:04:58.999Z</time></trkpt><trkpt lat="45.47060099769372" lon="11.014076858299763"><ele>95.0</ele><time>2026-04-18T12:05:00.999Z</time></trkpt><trkpt lat="45.47053050240109" lon="11.014058943191985"><ele>97.42857142857143</ele><time>2026-04-18T12:05:02.999Z</time></trkpt><trkpt lat="45.47045723710796" lon="11.0140437786826"><ele>99.85714285714286</ele><time>2026-04-18T12:05:04.999Z</time></trkpt><trkpt lat="45.470384258007876" lon="11.014034450769339"><ele>102.28571428571428</ele><time>2026-04-18T12:05:06.999Z</time></trkpt><trkpt lat="45.47031280303226" lon="11.014018950487348"><ele>104.71428571428572</ele><time>2026-04-18T12:05:08.999Z</time></trkpt><trkpt lat="45.47024725108738" lon="11.01401749664715"><ele>107.14285714285714</ele><time>2026-04-18T12:05:10.999Z</time></trkpt><trkpt lat="45.47018165042375" lon="11.014019776431761"><ele>109.57142857142857</ele><time>2026-04-18T12:05:12.999Z</time></trkpt><trkpt lat="45.47008728408995" lon="11.014034687469632"><ele>112.0</ele><time>2026-04-18T12:05:15.999Z</time></trkpt><trkpt lat="45.47000542538608" lon="11.014038610084395"><ele>112.00000000000001</ele><time>2026-04-18T12:05:18.999Z</time></trkpt><trkpt lat="45.46993258973433" lon="11.014087559610378"><ele>112.0</ele><time>2026-04-18T12:05:21.999Z</time></trkpt><trkpt lat="45.4698690475018" lon="11.014143942544319"><ele>112.0</ele><time>2026-04-18T12:05:23.999Z</time></trkpt><trkpt lat="45.469791772321095" lon="11.014134936402248"><ele>112.0</ele><time>2026-04-18T12:05:25.999Z</time></trkpt><trkpt lat="45.46971704227959" lon="11.014102348168544"><ele>112.00000000000001</ele><time>2026-04-18T12:05:27.999Z</time></trkpt><trkpt lat="45.46964419795329" lon="11.014066661763533"><ele>112.0</ele><time>2026-04-18T12:05:29.999Z</time></trkpt><trkpt lat="45.46958159963309" lon="11.01400470838937"><ele>111.33333333333334</ele><time>2026-04-18T12:05:31.999Z</time></trkpt><trkpt lat="45.46950551531916" lon="11.013956346009492"><ele>110.66666666666667</ele><time>2026-04-18T12:05:33.999Z</time></trkpt><trkpt lat="45.469432962688344" lon="11.013894977593615"><ele>110.0</ele><time>2026-04-18T12:05:35.999Z</time></trkpt><trkpt lat="45.46936409256394" lon="11.013840458989039"><ele>109.33333333333334</ele><time>2026-04-18T12:05:37.999Z</time></trkpt><trkpt lat="45.469294343090915" lon="11.013804682700489"><ele>108.66666666666667</ele><time>2026-04-18T12:05:39.999Z</time></trkpt><trkpt lat="45.46922592729047" lon="11.013772929160023"><ele>108.0</ele><time>2026-04-18T12:05:41.999Z</time></trkpt><trkpt lat="45.46915093139418" lon="11.013758166701129"><ele>108.0</ele><time>2026-04-18T12:05:43.999Z</time></trkpt><trkpt lat="45.46907235714004" lon="11.013732805126278"><ele>108.0</ele><time>2026-04-18T12:05:45.999Z</time></trkpt><trkpt lat="45.468996516101726" lon="11.01371053927824"><ele>108.0</ele><time>2026-04-18T12:05:47.998Z</time></trkpt><trkpt lat="45.46891857997187" lon="11.013686460339509"><ele>108.0</ele><time>2026-04-18T12:05:49.998Z</time></trkpt><trkpt lat="45.46884400827656" lon="11.013653909038535"><ele>108.0</ele><time>2026-04-18T12:05:51.998Z</time></trkpt><trkpt lat="45.46876548654461" lon="11.013605493139343"><ele>108.0</ele><time>2026-04-18T12:05:53.998Z</time></trkpt><trkpt lat="45.46868271993173" lon="11.013576210573852"><ele>107.57142857142857</ele><time>2026-04-18T12:05:55.998Z</time></trkpt><trkpt lat="45.468604344291194" lon="11.013543602100931"><ele>107.14285714285714</ele><time>2026-04-18T12:05:57.998Z</time></trkpt><trkpt lat="45.468530550089255" lon="11.013516703841159"><ele>106.71428571428572</ele><time>2026-04-18T12:05:59.998Z</time></trkpt><trkpt lat="45.46845808915563" lon="11.013483964075117"><ele>106.28571428571428</ele><time>2026-04-18T12:06:01.998Z</time></trkpt><trkpt lat="45.46839069313257" lon="11.013453410850108"><ele>105.85714285714286</ele><time>2026-04-18T12:06:03.998Z</time></trkpt><trkpt lat="45.468327891474395" lon="11.013423952675"><ele>105.42857142857143</ele><time>2026-04-18T12:06:05.998Z</time></trkpt><trkpt lat="45.46826760179935" lon="11.013388692544714"><ele>105.0</ele><time>2026-04-18T12:06:07.998Z</time></trkpt><trkpt lat="45.46819863352008" lon="11.013369965945161"><ele>105.0</ele><time>2026-04-18T12:06:10Z</time></trkpt><trkpt lat="45.468132963400166" lon="11.013348298701866"><ele>105.0</ele><time>2026-04-18T12:06:12Z</time></trkpt><trkpt lat="45.46806730958065" lon="11.013332014181945"><ele>105.0</ele><time>2026-04-18T12:06:14Z</time></trkpt><trkpt lat="45.467991896221065" lon="11.01331252049695"><ele>105.0</ele><time>2026-04-18T12:06:16Z</time></trkpt><trkpt lat="45.46791590197504" lon="11.013292719842562"><ele>105.0</ele><time>2026-04-18T12:06:18Z</time></trkpt><trkpt lat="45.467836110036956" lon="11.013274652852381"><ele>105.0</ele><time>2026-04-18T12:06:20Z</time></trkpt><trkpt lat="45.467755324941415" lon="11.013260848264157"><ele>106.33333333333333</ele><time>2026-04-18T12:06:22Z</time></trkpt><trkpt lat="45.46767779223902" lon="11.01324952675981"><ele>107.66666666666666</ele><time>2026-04-18T12:06:24Z</time></trkpt><trkpt lat="45.46760308405776" lon="11.013220262619063"><ele>109.0</ele><time>2026-04-18T12:06:26Z</time></trkpt><trkpt lat="45.46752660291285" lon="11.013190362399987"><ele>110.33333333333333</ele><time>2026-04-18T12:06:28Z</time></trkpt><trkpt lat="45.46744955255273" lon="11.013156863144346"><ele>111.66666666666666</ele><time>2026-04-18T12:06:30Z</time></trkpt><trkpt lat="45.467381486194505" lon="11.013124553043033"><ele>113.0</ele><time>2026-04-18T12:06:32Z</time></trkpt><trkpt lat="45.4673122513447" lon="11.01307589023998"><ele>112.99999999999999</ele><time>2026-04-18T12:06:34Z</time></trkpt><trkpt lat="45.467241266231525" lon="11.013014521495586"><ele>113.0</ele><time>2026-04-18T12:06:36Z</time></trkpt><trkpt lat="45.46717712979136" lon="11.012954734330904"><ele>113.0</ele><time>2026-04-18T12:06:38Z</time></trkpt><trkpt lat="45.46709063395218" lon="11.01291048508835"><ele>113.0</ele><time>2026-04-18T12:06:40Z</time></trkpt><trkpt lat="45.46696799041885" lon="11.012880634939012"><ele>112.99999999999999</ele><time>2026-04-18T12:06:42Z</time></trkpt><trkpt lat="45.4669023206734" lon="11.012864218612043"><ele>113.0</ele><time>2026-04-18T12:06:43Z</time></trkpt><trkpt lat="45.46683666679207" lon="11.012844793192855"><ele>111.83333333333333</ele><time>2026-04-18T12:06:44Z</time></trkpt><trkpt lat="45.46677231902344" lon="11.012825407978411"><ele>110.66666666666666</ele><time>2026-04-18T12:06:45Z</time></trkpt><trkpt lat="45.46665057420461" lon="11.012782273964655"><ele>109.5</ele><time>2026-04-18T12:06:47Z</time></trkpt><trkpt lat="45.46659048341655" lon="11.012748680384133"><ele>108.33333333333334</ele><time>2026-04-18T12:06:48Z</time></trkpt><trkpt lat="45.46653206351077" lon="11.012706679086913"><ele>107.16666666666667</ele><time>2026-04-18T12:06:49Z</time></trkpt><trkpt lat="45.46642249295374" lon="11.01264211265494"><ele>106.0</ele><time>2026-04-18T12:06:51Z</time></trkpt><trkpt lat="45.466323250297386" lon="11.01256801378834"><ele>107.19999999999999</ele><time>2026-04-18T12:06:52.999Z</time></trkpt><trkpt lat="45.466222672144745" lon="11.012482808702185"><ele>108.39999999999999</ele><time>2026-04-18T12:06:54.999Z</time></trkpt><trkpt lat="45.466131224183776" lon="11.012402060666316"><ele>109.6</ele><time>2026-04-18T12:06:56.999Z</time></trkpt><trkpt lat="45.46604140886544" lon="11.012320729803635"><ele>110.8</ele><time>2026-04-18T12:06:58.999Z</time></trkpt><trkpt lat="45.46595057702996" lon="11.012246173635065"><ele>112.0</ele><time>2026-04-18T12:07:00.999Z</time></trkpt><trkpt lat="45.465853441728676" lon="11.01218770283206"><ele>112.0</ele><time>2026-04-18T12:07:02.999Z</time></trkpt><trkpt lat="45.46574921261385" lon="11.012141185945449"><ele>111.99999999999999</ele><time>2026-04-18T12:07:04.999Z</time></trkpt><trkpt lat="45.46563471883461" lon="11.01213048731816"><ele>111.99999999999999</ele><time>2026-04-18T12:07:06.999Z</time></trkpt><trkpt lat="45.46552306672965" lon="11.01213135407126"><ele>112.0</ele><time>2026-04-18T12:07:08.999Z</time></trkpt><trkpt lat="45.465413983435866" lon="11.012140675279012"><ele>112.0</ele><time>2026-04-18T12:07:10.999Z</time></trkpt><trkpt lat="45.465300836010115" lon="11.012151521212523"><ele>111.25</ele><time>2026-04-18T12:07:12.999Z</time></trkpt><trkpt lat="45.465197884308665" lon="11.012188303729285"><ele>110.5</ele><time>2026-04-18T12:07:14.999Z</time></trkpt><trkpt lat="45.46508724324744" lon="11.012227817063735"><ele>109.75</ele><time>2026-04-18T12:07:16.999Z</time></trkpt><trkpt lat="45.46497234311169" lon="11.012264400735456"><ele>109.0</ele><time>2026-04-18T12:07:18.999Z</time></trkpt><trkpt lat="45.464850155032984" lon="11.012284177356655"><ele>109.0</ele><time>2026-04-18T12:07:20.999Z</time></trkpt><trkpt lat="45.46472937310559" lon="11.012312340243268"><ele>109.0</ele><time>2026-04-18T12:07:22.999Z</time></trkpt><trkpt lat="45.46461122983781" lon="11.012330533330992"><ele>109.0</ele><time>2026-04-18T12:07:24.999Z</time></trkpt><trkpt lat="45.46449972500307" lon="11.012355410116134"><ele>109.0</ele><time>2026-04-18T12:07:26.999Z</time></trkpt><trkpt lat="45.464398123814306" lon="11.012367063959632"><ele>108.83333333333334</ele><time>2026-04-18T12:07:28.999Z</time></trkpt><trkpt lat="45.464300752062286" lon="11.012375974999959"><ele>108.66666666666667</ele><time>2026-04-18T12:07:30.999Z</time></trkpt><trkpt lat="45.46422206460667" lon="11.01238316640622"><ele>108.5</ele><time>2026-04-18T12:07:32.999Z</time></trkpt><trkpt lat="45.464139210146534" lon="11.0124099546331"><ele>108.33333333333334</ele><time>2026-04-18T12:07:34.999Z</time></trkpt><trkpt lat="45.46406794374406" lon="11.012442554859884"><ele>108.16666666666667</ele><time>2026-04-18T12:07:36.999Z</time></trkpt><trkpt lat="45.463999994128514" lon="11.012498133530686"><ele>108.0</ele><time>2026-04-18T12:07:38.999Z</time></trkpt><trkpt lat="45.46393232061785" lon="11.012547957897517"><ele>108.0</ele><time>2026-04-18T12:07:40.999Z</time></trkpt><trkpt lat="45.46385707696841" lon="11.012585401604968"><ele>108.0</ele><time>2026-04-18T12:07:42.999Z</time></trkpt><trkpt lat="45.4637884115095" lon="11.012622719031066"><ele>108.0</ele><time>2026-04-18T12:07:44.999Z</time></trkpt><trkpt lat="45.46372531089307" lon="11.012663011508385"><ele>108.0</ele><time>2026-04-18T12:07:46.999Z</time></trkpt><trkpt lat="45.46365343276019" lon="11.01269996007756"><ele>108.0</ele><time>2026-04-18T12:07:48.999Z</time></trkpt><trkpt lat="45.46358323321452" lon="11.012742989917088"><ele>108.0</ele><time>2026-04-18T12:07:50.998Z</time></trkpt><trkpt lat="45.463513405739604" lon="11.012777181762747"><ele>108.0</ele><time>2026-04-18T12:07:52.998Z</time></trkpt><trkpt lat="45.46344803050985" lon="11.01281500463969"><ele>110.0</ele><time>2026-04-18T12:07:54.998Z</time></trkpt><trkpt lat="45.4633743609358" lon="11.012839932263336"><ele>112.0</ele><time>2026-04-18T12:07:56.998Z</time></trkpt><trkpt lat="45.46330358852587" lon="11.012845235677485"><ele>114.0</ele><time>2026-04-18T12:07:58.998Z</time></trkpt><trkpt lat="45.46323652818347" lon="11.012857012200302"><ele>116.0</ele><time>2026-04-18T12:08:00.998Z</time></trkpt><trkpt lat="45.46316185355147" lon="11.012863892444498"><ele>118.0</ele><time>2026-04-18T12:08:02.998Z</time></trkpt><trkpt lat="45.46309511666867" lon="11.012864258739379"><ele>119.99999999999999</ele><time>2026-04-18T12:08:04.998Z</time></trkpt><trkpt lat="45.4630296793688" lon="11.012868896032197"><ele>121.99999999999999</ele><time>2026-04-18T12:08:06.998Z</time></trkpt><trkpt lat="45.462963827704556" lon="11.012882518466112"><ele>124.33333333333333</ele><time>2026-04-18T12:08:08.998Z</time></trkpt><trkpt lat="45.46290158316079" lon="11.012897660172163"><ele>126.66666666666666</ele><time>2026-04-18T12:08:10.998Z</time></trkpt><trkpt lat="45.462814389461684" lon="11.012927275521964"><ele>129.0</ele><time>2026-04-18T12:08:13.998Z</time></trkpt><trkpt lat="45.462744596102226" lon="11.012951783629859"><ele>131.33333333333334</ele><time>2026-04-18T12:08:16Z</time></trkpt><trkpt lat="45.462677987648924" lon="11.012965549566271"><ele>133.66666666666669</ele><time>2026-04-18T12:08:18Z</time></trkpt><trkpt lat="45.46260267299092" lon="11.0129944281496"><ele>136.0</ele><time>2026-04-18T12:08:20Z</time></trkpt><trkpt lat="45.46251472182759" lon="11.013006499969016"><ele>136.0</ele><time>2026-04-18T12:08:22Z</time></trkpt><trkpt lat="45.46243208966961" lon="11.013019552747158"><ele>136.0</ele><time>2026-04-18T12:08:24Z</time></trkpt><trkpt lat="45.462342059760815" lon="11.013035894694676"><ele>136.0</ele><time>2026-04-18T12:08:26Z</time></trkpt><trkpt lat="45.462253952513215" lon="11.01305074313145"><ele>136.0</ele><time>2026-04-18T12:08:28Z</time></trkpt><trkpt lat="45.462164806976375" lon="11.0130595036506"><ele>136.0</ele><time>2026-04-18T12:08:30Z</time></trkpt><trkpt lat="45.46207653957887" lon="11.013061711620585"><ele>136.0</ele><time>2026-04-18T12:08:32Z</time></trkpt><trkpt lat="45.46198958741928" lon="11.013063569225391"><ele>137.6</ele><time>2026-04-18T12:08:34Z</time></trkpt><trkpt lat="45.461898311443505" lon="11.01305929206183"><ele>139.2</ele><time>2026-04-18T12:08:36Z</time></trkpt><trkpt lat="45.461810796776206" lon="11.01307977342558"><ele>140.8</ele><time>2026-04-18T12:08:38Z</time></trkpt><trkpt lat="45.461723739813195" lon="11.013090844887621"><ele>142.4</ele><time>2026-04-18T12:08:40Z</time></trkpt><trkpt lat="45.46162970188862" lon="11.013093823635717"><ele>144.0</ele><time>2026-04-18T12:08:42Z</time></trkpt><trkpt lat="45.46153031431685" lon="11.013095960459067"><ele>144.0</ele><time>2026-04-18T12:08:44Z</time></trkpt><trkpt lat="45.46145280392555" lon="11.013099322624084"><ele>144.0</ele><time>2026-04-18T12:08:46Z</time></trkpt><trkpt lat="45.46137109206641" lon="11.013094432408709"><ele>144.0</ele><time>2026-04-18T12:08:48Z</time></trkpt><trkpt lat="45.461290070271616" lon="11.013093178474401"><ele>144.0</ele><time>2026-04-18T12:08:50Z</time></trkpt><trkpt lat="45.46122246379459" lon="11.01309097610975"><ele>144.0</ele><time>2026-04-18T12:08:52Z</time></trkpt><trkpt lat="45.46114171717054" lon="11.013081302426874"><ele>144.0</ele><time>2026-04-18T12:08:54Z</time></trkpt><trkpt lat="45.46106150471092" lon="11.01305840779893"><ele>143.83333333333334</ele><time>2026-04-18T12:08:56Z</time></trkpt><trkpt lat="45.460976941031575" lon="11.013043054291204"><ele>143.66666666666666</ele><time>2026-04-18T12:08:57.999Z</time></trkpt><trkpt lat="45.460896964131514" lon="11.013017596315414"><ele>143.5</ele><time>2026-04-18T12:08:59.999Z</time></trkpt><trkpt lat="45.46081838768299" lon="11.013005871526962"><ele>143.33333333333331</ele><time>2026-04-18T12:09:01.999Z</time></trkpt><trkpt lat="45.46073564272513" lon="11.012964920264041"><ele>143.16666666666666</ele><time>2026-04-18T12:09:03.999Z</time></trkpt><trkpt lat="45.46065476671147" lon="11.012942263501717"><ele>143.0</ele><time>2026-04-18T12:09:05.999Z</time></trkpt><trkpt lat="45.46057062059654" lon="11.012920819168563"><ele>143.0</ele><time>2026-04-18T12:09:07.999Z</time></trkpt><trkpt lat="45.46049013125979" lon="11.012901461633119"><ele>143.0</ele><time>2026-04-18T12:09:09.999Z</time></trkpt><trkpt lat="45.46041041821376" lon="11.01287002308028"><ele>143.0</ele><time>2026-04-18T12:09:11.999Z</time></trkpt><trkpt lat="45.460334574334226" lon="11.012844912651689"><ele>143.0</ele><time>2026-04-18T12:09:13.999Z</time></trkpt><trkpt lat="45.460253690697364" lon="11.01282939368384"><ele>143.0</ele><time>2026-04-18T12:09:15.999Z</time></trkpt><trkpt lat="45.46016998026488" lon="11.012816823854555"><ele>143.0</ele><time>2026-04-18T12:09:17.999Z</time></trkpt><trkpt lat="45.46009147137349" lon="11.012788136527432"><ele>143.16666666666666</ele><time>2026-04-18T12:09:19.999Z</time></trkpt><trkpt lat="45.460021814650524" lon="11.01279110546011"><ele>143.33333333333331</ele><time>2026-04-18T12:09:21.999Z</time></trkpt><trkpt lat="45.45993912668846" lon="11.012794755274705"><ele>143.5</ele><time>2026-04-18T12:09:24.999Z</time></trkpt><trkpt lat="45.45986779124456" lon="11.012874432253588"><ele>143.66666666666666</ele><time>2026-04-18T12:09:27.999Z</time></trkpt><trkpt lat="45.45980808473315" lon="11.012930568078623"><ele>143.83333333333334</ele><time>2026-04-18T12:09:29.999Z</time></trkpt><trkpt lat="45.45972514970764" lon="11.01301506862554"><ele>144.0</ele><time>2026-04-18T12:09:32.999Z</time></trkpt><trkpt lat="45.45964622730999" lon="11.01306967354935"><ele>144.66666666666666</ele><time>2026-04-18T12:09:34.999Z</time></trkpt><trkpt lat="45.459566788229836" lon="11.013109635355839"><ele>145.33333333333334</ele><time>2026-04-18T12:09:36.999Z</time></trkpt><trkpt lat="45.45948106514314" lon="11.013132616059293"><ele>146.0</ele><time>2026-04-18T12:09:38.999Z</time></trkpt><trkpt lat="45.45939978405169" lon="11.013177887709878"><ele>146.66666666666669</ele><time>2026-04-18T12:09:40.999Z</time></trkpt><trkpt lat="45.45931559086251" lon="11.013199999488554"><ele>147.33333333333334</ele><time>2026-04-18T12:09:42.999Z</time></trkpt><trkpt lat="45.45923056623134" lon="11.013215405530337"><ele>148.0</ele><time>2026-04-18T12:09:44.999Z</time></trkpt><trkpt lat="45.459145586940984" lon="11.01322910920448"><ele>148.0</ele><time>2026-04-18T12:09:46.999Z</time></trkpt><trkpt lat="45.459063914471564" lon="11.013222035759496"><ele>148.0</ele><time>2026-04-18T12:09:48.999Z</time></trkpt><trkpt lat="45.458983119714794" lon="11.01319479524439"><ele>148.0</ele><time>2026-04-18T12:09:50.999Z</time></trkpt><trkpt lat="45.45890557818698" lon="11.013160542635951"><ele>148.0</ele><time>2026-04-18T12:09:52.999Z</time></trkpt><trkpt lat="45.45882855822243" lon="11.013127324752102"><ele>148.0</ele><time>2026-04-18T12:09:54.998Z</time></trkpt><trkpt lat="45.45876040741001" lon="11.013078261219908"><ele>148.0</ele><time>2026-04-18T12:09:56.998Z</time></trkpt><trkpt lat="45.458680178585915" lon="11.013034469952048"><ele>144.8</ele><time>2026-04-18T12:09:59.998Z</time></trkpt><trkpt lat="45.45860723939867" lon="11.012987470271824"><ele>141.60000000000002</ele><time>2026-04-18T12:11:10.999Z</time></trkpt><trkpt lat="45.4585166188371" lon="11.012955629433122"><ele>138.39999999999998</ele><time>2026-04-18T12:11:12.999Z</time></trkpt><trkpt lat="45.45841637533165" lon="11.0129014444221"><ele>135.2</ele><time>2026-04-18T12:11:14.999Z</time></trkpt><trkpt lat="45.45833563678401" lon="11.012840977788889"><ele>132.0</ele><time>2026-04-18T12:11:16.999Z</time></trkpt><trkpt lat="45.458273729154705" lon="11.012762714559265"><ele>132.0</ele><time>2026-04-18T12:11:18.999Z</time></trkpt><trkpt lat="45.45821732136244" lon="11.012678414363982"><ele>132.0</ele><time>2026-04-18T12:11:20.999Z</time></trkpt><trkpt lat="45.45817340687727" lon="11.012568826705376"><ele>132.0</ele><time>2026-04-18T12:11:22.999Z</time></trkpt><trkpt lat="45.45813930652426" lon="11.012469645213049"><ele>132.0</ele><time>2026-04-18T12:11:24.999Z</time></trkpt><trkpt lat="45.45811392392241" lon="11.012361857484317"><ele>132.0</ele><time>2026-04-18T12:11:26.999Z</time></trkpt><trkpt lat="45.458085986082345" lon="11.01226016960899"><ele>132.0</ele><time>2026-04-18T12:11:28.999Z</time></trkpt><trkpt lat="45.45805854298737" lon="11.012166794273428"><ele>133.6</ele><time>2026-04-18T12:11:30.999Z</time></trkpt><trkpt lat="45.457978599484846" lon="11.012073373404032"><ele>135.2</ele><time>2026-04-18T12:11:32.999Z</time></trkpt><trkpt lat="45.45794100044173" lon="11.0119419557676"><ele>136.8</ele><time>2026-04-18T12:11:34.999Z</time></trkpt><trkpt lat="45.45789515055669" lon="11.011851663426794"><ele>138.4</ele><time>2026-04-18T12:11:36.999Z</time></trkpt><trkpt lat="45.45781460262817" lon="11.011781568626297"><ele>140.0</ele><time>2026-04-18T12:11:39.999Z</time></trkpt><trkpt lat="45.45771822714465" lon="11.011753199529839"><ele>140.0</ele><time>2026-04-18T12:11:42.999Z</time></trkpt><trkpt lat="45.457627824411844" lon="11.0117385574861"><ele>140.0</ele><time>2026-04-18T12:11:45.999Z</time></trkpt><trkpt lat="45.457534167112605" lon="11.011734305311483"><ele>140.0</ele><time>2026-04-18T12:11:48.999Z</time></trkpt><trkpt lat="45.457449949831236" lon="11.011741882141505"><ele>140.0</ele><time>2026-04-18T12:11:50.999Z</time></trkpt><trkpt lat="45.45736512317954" lon="11.011729040607124"><ele>140.0</ele><time>2026-04-18T12:11:52.999Z</time></trkpt><trkpt lat="45.457264336810844" lon="11.01172230635349"><ele>140.0</ele><time>2026-04-18T12:11:54.999Z</time></trkpt><trkpt lat="45.45717431849367" lon="11.011700191999104"><ele>140.0</ele><time>2026-04-18T12:11:56.999Z</time></trkpt><trkpt lat="45.45708534567305" lon="11.0116770273504"><ele>140.0</ele><time>2026-04-18T12:11:58.999Z</time></trkpt><trkpt lat="45.45700649330819" lon="11.011650938629977"><ele>140.0</ele><time>2026-04-18T12:12:00.998Z</time></trkpt><trkpt lat="45.45692696362855" lon="11.011602394375423"><ele>140.0</ele><time>2026-04-18T12:12:02.998Z</time></trkpt><trkpt lat="45.45685854156553" lon="11.011559198445422"><ele>140.0</ele><time>2026-04-18T12:12:04.998Z</time></trkpt><trkpt lat="45.45677773732584" lon="11.011559630342344"><ele>142.66666666666666</ele><time>2026-04-18T12:12:06.998Z</time></trkpt><trkpt lat="45.456690231295795" lon="11.011523589579506"><ele>145.33333333333331</ele><time>2026-04-18T12:12:08.998Z</time></trkpt><trkpt lat="45.45662156023909" lon="11.01150974176696"><ele>148.0</ele><time>2026-04-18T12:12:10.998Z</time></trkpt><trkpt lat="45.45653171360047" lon="11.011513068917388"><ele>150.66666666666666</ele><time>2026-04-18T12:12:12.998Z</time></trkpt><trkpt lat="45.456460869802555" lon="11.011529985059248"><ele>153.33333333333334</ele><time>2026-04-18T12:12:14.998Z</time></trkpt><trkpt lat="45.45638721599112" lon="11.011541505131794"><ele>156.0</ele><time>2026-04-18T12:12:16.998Z</time></trkpt><trkpt lat="45.45629859156565" lon="11.011572901030059"><ele>155.83333333333334</ele><time>2026-04-18T12:12:18.998Z</time></trkpt><trkpt lat="45.45623037257665" lon="11.011584110987528"><ele>155.66666666666666</ele><time>2026-04-18T12:12:20.998Z</time></trkpt><trkpt lat="45.456137970610044" lon="11.011581704738553"><ele>155.5</ele><time>2026-04-18T12:12:22.998Z</time></trkpt><trkpt lat="45.456031614240075" lon="11.0116180815947"><ele>155.33333333333331</ele><time>2026-04-18T12:12:25.998Z</time></trkpt><trkpt lat="45.455932681511456" lon="11.011611545440148"><ele>155.16666666666666</ele><time>2026-04-18T12:12:29Z</time></trkpt><trkpt lat="45.45586479744907" lon="11.011627953114456"><ele>155.0</ele><time>2026-04-18T12:12:31Z</time></trkpt><trkpt lat="45.45580390333333" lon="11.011653341973464"><ele>155.0</ele><time>2026-04-18T12:12:35Z</time></trkpt><trkpt lat="45.455737761366585" lon="11.011644739365071"><ele>155.0</ele><time>2026-04-18T12:12:37Z</time></trkpt><trkpt lat="45.45569099573665" lon="11.01172166469678"><ele>155.0</ele><time>2026-04-18T12:12:40Z</time></trkpt><trkpt lat="45.45558228180578" lon="11.01173746883369"><ele>155.0</ele><time>2026-04-18T12:12:43Z</time></trkpt><trkpt lat="45.4555066342627" lon="11.01173041331528"><ele>155.0</ele><time>2026-04-18T12:12:45Z</time></trkpt><trkpt lat="45.455419727393554" lon="11.011719883475681"><ele>155.0</ele><time>2026-04-18T12:12:47Z</time></trkpt><trkpt lat="45.45532877662892" lon="11.011694944088639"><ele>155.6</ele><time>2026-04-18T12:12:49Z</time></trkpt><trkpt lat="45.45524474274222" lon="11.011667692910411"><ele>156.2</ele><time>2026-04-18T12:12:51Z</time></trkpt><trkpt lat="45.455157132255835" lon="11.011632797336375"><ele>156.8</ele><time>2026-04-18T12:12:53Z</time></trkpt><trkpt lat="45.45506894083814" lon="11.011618731879631"><ele>157.4</ele><time>2026-04-18T12:12:55Z</time></trkpt><trkpt lat="45.45498282442938" lon="11.0116072297034"><ele>158.0</ele><time>2026-04-18T12:12:57Z</time></trkpt><trkpt lat="45.454882366541035" lon="11.011610457217067"><ele>158.0</ele><time>2026-04-18T12:12:59Z</time></trkpt><trkpt lat="45.454784747973626" lon="11.011625347654482"><ele>158.0</ele><time>2026-04-18T12:13:01Z</time></trkpt><trkpt lat="45.45469323796149" lon="11.011647355465852"><ele>158.0</ele><time>2026-04-18T12:13:03Z</time></trkpt><trkpt lat="45.45460196061087" lon="11.011686565212031"><ele>158.0</ele><time>2026-04-18T12:13:05Z</time></trkpt><trkpt lat="45.45450827983186" lon="11.011705366099653"><ele>158.0</ele><time>2026-04-18T12:13:07Z</time></trkpt><trkpt lat="45.45441656222059" lon="11.011723776136803"><ele>156.0</ele><time>2026-04-18T12:13:08.999Z</time></trkpt><trkpt lat="45.454329622132796" lon="11.011718797671307"><ele>154.0</ele><time>2026-04-18T12:13:10.999Z</time></trkpt><trkpt lat="45.454249893513115" lon="11.011725718076958"><ele>152.0</ele><time>2026-04-18T12:13:12.999Z</time></trkpt><trkpt lat="45.454161194792114" lon="11.011731545797515"><ele>150.0</ele><time>2026-04-18T12:13:14.999Z</time></trkpt><trkpt lat="45.45408855004552" lon="11.011735144687757"><ele>148.0</ele><time>2026-04-18T12:13:16.999Z</time></trkpt><trkpt lat="45.45401670385137" lon="11.011748935378394"><ele>146.0</ele><time>2026-04-18T12:13:18.999Z</time></trkpt><trkpt lat="45.45394553293516" lon="11.011776617718002"><ele>146.0</ele><time>2026-04-18T12:13:20.999Z</time></trkpt><trkpt lat="45.453868731096925" lon="11.011758453693268"><ele>146.0</ele><time>2026-04-18T12:13:22.999Z</time></trkpt><trkpt lat="45.45377424451609" lon="11.011765390053393"><ele>146.0</ele><time>2026-04-18T12:13:24.999Z</time></trkpt><trkpt lat="45.45369401081978" lon="11.011763926995993"><ele>146.0</ele><time>2026-04-18T12:13:26.999Z</time></trkpt><trkpt lat="45.453608535998335" lon="11.011763802275995"><ele>146.0</ele><time>2026-04-18T12:13:28.999Z</time></trkpt><trkpt lat="45.45352754591166" lon="11.011749823435096"><ele>146.0</ele><time>2026-04-18T12:13:30.999Z</time></trkpt><trkpt lat="45.45344004347391" lon="11.011725174710683"><ele>146.16666666666666</ele><time>2026-04-18T12:13:32.999Z</time></trkpt><trkpt lat="45.45337039465898" lon="11.011698887747603"><ele>146.33333333333331</ele><time>2026-04-18T12:13:34.999Z</time></trkpt><trkpt lat="45.45329456785784" lon="11.011653253480329"><ele>146.5</ele><time>2026-04-18T12:13:36.999Z</time></trkpt><trkpt lat="45.45320327764131" lon="11.01161622238124"><ele>146.66666666666666</ele><time>2026-04-18T12:13:38.999Z</time></trkpt><trkpt lat="45.45312534137948" lon="11.011573863408072"><ele>146.83333333333334</ele><time>2026-04-18T12:13:40.999Z</time></trkpt><trkpt lat="45.45305243417775" lon="11.01148993621378"><ele>147.0</ele><time>2026-04-18T12:13:42.999Z</time></trkpt><trkpt lat="45.45299040233773" lon="11.011421909736393"><ele>147.83333333333334</ele><time>2026-04-18T12:13:44.999Z</time></trkpt><trkpt lat="45.45292512154216" lon="11.011338325728712"><ele>148.66666666666666</ele><time>2026-04-18T12:13:46.999Z</time></trkpt><trkpt lat="45.45286851413723" lon="11.011245910019518"><ele>149.5</ele><time>2026-04-18T12:13:48.999Z</time></trkpt><trkpt lat="45.452803576038605" lon="11.011157746831358"><ele>150.33333333333331</ele><time>2026-04-18T12:13:50.999Z</time></trkpt><trkpt lat="45.45272290249411" lon="11.011108956982213"><ele>151.16666666666666</ele><time>2026-04-18T12:13:52.999Z</time></trkpt><trkpt lat="45.452663861114324" lon="11.011065846914653"><ele>152.0</ele><time>2026-04-18T12:13:54.999Z</time></trkpt><trkpt lat="45.45261032148597" lon="11.010998824551143"><ele>152.0</ele><time>2026-04-18T12:13:57.999Z</time></trkpt><trkpt lat="45.4525316496862" lon="11.010951769813598"><ele>152.0</ele><time>2026-04-18T12:14:00.999Z</time></trkpt><trkpt lat="45.452457180814704" lon="11.01092085203726"><ele>152.0</ele><time>2026-04-18T12:14:02.999Z</time></trkpt><trkpt lat="45.452384844659875" lon="11.010891580093528"><ele>152.0</ele><time>2026-04-18T12:14:04.998Z</time></trkpt><trkpt lat="45.452319320575604" lon="11.01086620602446"><ele>152.0</ele><time>2026-04-18T12:14:06.998Z</time></trkpt><trkpt lat="45.45224981677527" lon="11.010848322928746"><ele>152.0</ele><time>2026-04-18T12:14:08.998Z</time></trkpt><trkpt lat="45.452165039585644" lon="11.010797370136157"><ele>151.5</ele><time>2026-04-18T12:14:10.998Z</time></trkpt><trkpt lat="45.452083767558555" lon="11.010791106384536"><ele>151.0</ele><time>2026-04-18T12:14:13.998Z</time></trkpt><trkpt lat="45.45200119609276" lon="11.010735015454811"><ele>150.5</ele><time>2026-04-18T12:14:16.998Z</time></trkpt><trkpt lat="45.45200281879993" lon="11.010630157644025"><ele>150.0</ele><time>2026-04-18T12:14:21.998Z</time></trkpt><trkpt lat="45.452068982622215" lon="11.010584843124251"><ele>149.5</ele><time>2026-04-18T12:14:25.998Z</time></trkpt><trkpt lat="45.452131935812716" lon="11.010572824596428"><ele>149.0</ele><time>2026-04-18T12:14:27.998Z</time></trkpt><trkpt lat="45.45222084791957" lon="11.010527356198883"><ele>150.66666666666666</ele><time>2026-04-18T12:14:30.998Z</time></trkpt><trkpt lat="45.452307914499144" lon="11.010483895754398"><ele>152.33333333333331</ele><time>2026-04-18T12:14:34Z</time></trkpt><trkpt lat="45.452365458489155" lon="11.01044674274835"><ele>154.0</ele><time>2026-04-18T12:14:36Z</time></trkpt><trkpt lat="45.452443836589914" lon="11.01040159854612"><ele>155.66666666666666</ele><time>2026-04-18T12:14:39Z</time></trkpt><trkpt lat="45.45252357337533" lon="11.010400452418425"><ele>157.33333333333334</ele><time>2026-04-18T12:14:41Z</time></trkpt><trkpt lat="45.45259162642884" lon="11.010409859437848"><ele>159.0</ele><time>2026-04-18T12:14:43Z</time></trkpt><trkpt lat="45.45265721435898" lon="11.010426163647114"><ele>159.0</ele><time>2026-04-18T12:14:45Z</time></trkpt><trkpt lat="45.452720210680766" lon="11.01043968891973"><ele>159.0</ele><time>2026-04-18T12:14:47Z</time></trkpt><trkpt lat="45.45279548862755" lon="11.010482449507622"><ele>159.0</ele><time>2026-04-18T12:14:49Z</time></trkpt><trkpt lat="45.45286346548045" lon="11.010517818831664"><ele>159.0</ele><time>2026-04-18T12:14:51Z</time></trkpt><trkpt lat="45.45295326507821" lon="11.010595564155583"><ele>159.0</ele><time>2026-04-18T12:14:53Z</time></trkpt><trkpt lat="45.45304752646401" lon="11.010660853113242"><ele>159.0</ele><time>2026-04-18T12:14:55Z</time></trkpt><trkpt lat="45.45313878457501" lon="11.01070518658227"><ele>160.0</ele><time>2026-04-18T12:14:57Z</time></trkpt><trkpt lat="45.45324308988312" lon="11.010747369797105"><ele>161.0</ele><time>2026-04-18T12:14:59Z</time></trkpt><trkpt lat="45.453322982866844" lon="11.0107281812669"><ele>162.0</ele><time>2026-04-18T12:15:01Z</time></trkpt><trkpt lat="45.45339030299325" lon="11.010691244928818"><ele>163.0</ele><time>2026-04-18T12:15:03Z</time></trkpt><trkpt lat="45.453466723407324" lon="11.010626495337213"><ele>164.0</ele><time>2026-04-18T12:15:05Z</time></trkpt><trkpt lat="45.45354539214326" lon="11.010563524595991"><ele>165.0</ele><time>2026-04-18T12:15:07Z</time></trkpt><trkpt lat="45.4536119351026" lon="11.01051350354703"><ele>165.0</ele><time>2026-04-18T12:15:09Z</time></trkpt><trkpt lat="45.453693062514006" lon="11.010443432694778"><ele>165.0</ele><time>2026-04-18T12:15:11Z</time></trkpt><trkpt lat="45.45376742668301" lon="11.010369146802468"><ele>165.0</ele><time>2026-04-18T12:15:13Z</time></trkpt><trkpt lat="45.453824352066285" lon="11.010308958205838"><ele>165.0</ele><time>2026-04-18T12:15:14Z</time></trkpt><trkpt lat="45.45392107708207" lon="11.010286985161352"><ele>165.0</ele><time>2026-04-18T12:15:15.999Z</time></trkpt><trkpt lat="45.454025932504656" lon="11.010287433345193"><ele>165.75</ele><time>2026-04-18T12:15:17.999Z</time></trkpt><trkpt lat="45.45411709855849" lon="11.010327065484983"><ele>166.5</ele><time>2026-04-18T12:15:19.999Z</time></trkpt><trkpt lat="45.45421662855223" lon="11.010349483973773"><ele>167.25</ele><time>2026-04-18T12:15:21.999Z</time></trkpt><trkpt lat="45.454343407877474" lon="11.01039398518294"><ele>168.0</ele><time>2026-04-18T12:15:23.999Z</time></trkpt><trkpt lat="45.45446838179703" lon="11.010445429444392"><ele>168.0</ele><time>2026-04-18T12:15:25.999Z</time></trkpt><trkpt lat="45.45457936468081" lon="11.010471252596005"><ele>168.0</ele><time>2026-04-18T12:15:27.999Z</time></trkpt><trkpt lat="45.454683233129" lon="11.010519445598554"><ele>168.0</ele><time>2026-04-18T12:15:29.999Z</time></trkpt><trkpt lat="45.454781848395015" lon="11.010546832353727"><ele>168.0</ele><time>2026-04-18T12:15:31.999Z</time></trkpt><trkpt lat="45.45488543074682" lon="11.010586535410281"><ele>168.0</ele><time>2026-04-18T12:15:33.999Z</time></trkpt><trkpt lat="45.454996458380606" lon="11.010592731712523"><ele>167.8</ele><time>2026-04-18T12:15:35.999Z</time></trkpt><trkpt lat="45.4550592510202" lon="11.010581391489742"><ele>167.60000000000002</ele><time>2026-04-18T12:15:36.999Z</time></trkpt><trkpt lat="45.45515085031269" lon="11.010470664824648"><ele>167.39999999999998</ele><time>2026-04-18T12:15:38.999Z</time></trkpt><trkpt lat="45.45521260882834" lon="11.010337707840604"><ele>167.2</ele><time>2026-04-18T12:15:40.999Z</time></trkpt><trkpt lat="45.45523152984565" lon="11.010180132684871"><ele>167.0</ele><time>2026-04-18T12:15:42.999Z</time></trkpt><trkpt lat="45.455240511622435" lon="11.01004382639709"><ele>167.8</ele><time>2026-04-18T12:15:44.999Z</time></trkpt><trkpt lat="45.45526330378383" lon="11.00990807566326"><ele>168.6</ele><time>2026-04-18T12:15:46.999Z</time></trkpt><trkpt lat="45.45527168342885" lon="11.009764846699113"><ele>169.4</ele><time>2026-04-18T12:15:48.999Z</time></trkpt><trkpt lat="45.45528550505104" lon="11.009629336184407"><ele>170.20000000000002</ele><time>2026-04-18T12:15:50.999Z</time></trkpt><trkpt lat="45.45530563333583" lon="11.009501019659432"><ele>171.0</ele><time>2026-04-18T12:15:52.999Z</time></trkpt><trkpt lat="45.455332080822046" lon="11.009387948273728"><ele>171.0</ele><time>2026-04-18T12:15:54.999Z</time></trkpt><trkpt lat="45.45536400067357" lon="11.0092486835591"><ele>171.0</ele><time>2026-04-18T12:15:56.999Z</time></trkpt><trkpt lat="45.45536547085409" lon="11.009138326180699"><ele>171.0</ele><time>2026-04-18T12:15:58.999Z</time></trkpt><trkpt lat="45.45541316633071" lon="11.009035621365504"><ele>171.0</ele><time>2026-04-18T12:16:01.999Z</time></trkpt><trkpt lat="45.45543079091381" lon="11.008930864386267"><ele>171.0</ele><time>2026-04-18T12:16:03.999Z</time></trkpt><trkpt lat="45.455466902547386" lon="11.008842030022752"><ele>171.0</ele><time>2026-04-18T12:16:05.999Z</time></trkpt><trkpt lat="45.45551120661224" lon="11.00873954601694"><ele>171.0</ele><time>2026-04-18T12:16:07.999Z</time></trkpt><trkpt lat="45.45557072979206" lon="11.00864958179315"><ele>171.0</ele><time>2026-04-18T12:16:09.998Z</time></trkpt><trkpt lat="45.45562235331785" lon="11.00856145364582"><ele>171.0</ele><time>2026-04-18T12:16:11.998Z</time></trkpt><trkpt lat="45.455676237130305" lon="11.00847597445737"><ele>171.0</ele><time>2026-04-18T12:16:13.998Z</time></trkpt><trkpt lat="45.455718043323024" lon="11.008384048111258"><ele>171.0</ele><time>2026-04-18T12:16:15.998Z</time></trkpt><trkpt lat="45.455720865653916" lon="11.008287584849521"><ele>171.0</ele><time>2026-04-18T12:16:17.998Z</time></trkpt><trkpt lat="45.45564776113744" lon="11.008181198451364"><ele>171.0</ele><time>2026-04-18T12:16:20.998Z</time></trkpt><trkpt lat="45.45558667357495" lon="11.00811660400432"><ele>171.0</ele><time>2026-04-18T12:16:22.998Z</time></trkpt><trkpt lat="45.45550178721134" lon="11.008088782614436"><ele>171.0</ele><time>2026-04-18T12:16:24.998Z</time></trkpt><trkpt lat="45.45539767068292" lon="11.0080704616548"><ele>171.0</ele><time>2026-04-18T12:16:26.998Z</time></trkpt><trkpt lat="45.45528598570016" lon="11.008046703128212"><ele>171.0</ele><time>2026-04-18T12:16:28.998Z</time></trkpt><trkpt lat="45.45517001682619" lon="11.008016299223366"><ele>170.33333333333334</ele><time>2026-04-18T12:16:30.998Z</time></trkpt><trkpt lat="45.455077219763744" lon="11.007981839233542"><ele>169.66666666666666</ele><time>2026-04-18T12:16:32.998Z</time></trkpt><trkpt lat="45.45500025350839" lon="11.00791056063597"><ele>169.0</ele><time>2026-04-18T12:16:34.998Z</time></trkpt><trkpt lat="45.454950986591555" lon="11.007831275622506"><ele>168.33333333333331</ele><time>2026-04-18T12:16:36.998Z</time></trkpt><trkpt lat="45.454884373582445" lon="11.007809378462122"><ele>167.66666666666666</ele><time>2026-04-18T12:16:39Z</time></trkpt><trkpt lat="45.45480461021699" lon="11.007797457728909"><ele>167.0</ele><time>2026-04-18T12:16:41Z</time></trkpt><trkpt lat="45.45469502863745" lon="11.00781059795574"><ele>165.2</ele><time>2026-04-18T12:16:43Z</time></trkpt><trkpt lat="45.45459240016006" lon="11.007819064913797"><ele>163.39999999999998</ele><time>2026-04-18T12:16:45Z</time></trkpt><trkpt lat="45.45448566038473" lon="11.007765284085309"><ele>161.60000000000002</ele><time>2026-04-18T12:16:47Z</time></trkpt><trkpt lat="45.45441305907059" lon="11.007731503080834"><ele>159.8</ele><time>2026-04-18T12:17:11Z</time></trkpt><trkpt lat="45.454345727809304" lon="11.00774513580681"><ele>158.0</ele><time>2026-04-18T12:17:13Z</time></trkpt><trkpt lat="45.45425032455101" lon="11.007754086507509"><ele>158.0</ele><time>2026-04-18T12:17:15Z</time></trkpt><trkpt lat="45.454156834466154" lon="11.00769257461458"><ele>158.0</ele><time>2026-04-18T12:17:17Z</time></trkpt><trkpt lat="45.45404624708935" lon="11.007732929854154"><ele>158.0</ele><time>2026-04-18T12:17:19Z</time></trkpt><trkpt lat="45.45393526315586" lon="11.007766896600883"><ele>158.0</ele><time>2026-04-18T12:17:20.999Z</time></trkpt><trkpt lat="45.45383131730906" lon="11.007706854581985"><ele>158.0</ele><time>2026-04-18T12:17:22.999Z</time></trkpt><trkpt lat="45.45375915599863" lon="11.007696426022251"><ele>157.0</ele><time>2026-04-18T12:17:24.999Z</time></trkpt><trkpt lat="45.45369447109588" lon="11.00768605870809"><ele>156.0</ele><time>2026-04-18T12:17:25.999Z</time></trkpt><trkpt lat="45.45363451260177" lon="11.00764697828545"><ele>155.0</ele><time>2026-04-18T12:17:27.999Z</time></trkpt><trkpt lat="45.4536063610608" lon="11.007519251773795"><ele>154.0</ele><time>2026-04-18T12:17:30.999Z</time></trkpt><trkpt lat="45.45354602476696" lon="11.007471092778498"><ele>153.0</ele><time>2026-04-18T12:17:32.999Z</time></trkpt><trkpt lat="45.45345510279569" lon="11.00743822412542"><ele>152.0</ele><time>2026-04-18T12:17:34.999Z</time></trkpt><trkpt lat="45.45339350550573" lon="11.00738415627843"><ele>149.0</ele><time>2026-04-18T12:17:35.999Z</time></trkpt><trkpt lat="45.453329131880594" lon="11.007352336456119"><ele>146.0</ele><time>2026-04-18T12:17:36.999Z</time></trkpt><trkpt lat="45.453264325186" lon="11.007297770873354"><ele>143.0</ele><time>2026-04-18T12:17:37.999Z</time></trkpt><trkpt lat="45.45318912446647" lon="11.007250497515741"><ele>140.0</ele><time>2026-04-18T12:17:38.999Z</time></trkpt><trkpt lat="45.45312578086633" lon="11.007193395183876"><ele>137.0</ele><time>2026-04-18T12:17:39.999Z</time></trkpt><trkpt lat="45.45305500808422" lon="11.007110734418214"><ele>134.0</ele><time>2026-04-18T12:17:40.999Z</time></trkpt><trkpt lat="45.45298628818115" lon="11.007031107454866"><ele>133.4</ele><time>2026-04-18T12:17:41.999Z</time></trkpt><trkpt lat="45.452918743759064" lon="11.006940133578896"><ele>132.8</ele><time>2026-04-18T12:17:42.999Z</time></trkpt><trkpt lat="45.45283850118818" lon="11.006858742602772"><ele>132.2</ele><time>2026-04-18T12:17:43.999Z</time></trkpt><trkpt lat="45.45275910318435" lon="11.006763284046727"><ele>131.6</ele><time>2026-04-18T12:17:44.999Z</time></trkpt><trkpt lat="45.452696815904126" lon="11.006669911111112"><ele>131.0</ele><time>2026-04-18T12:17:45.999Z</time></trkpt><trkpt lat="45.45263873058864" lon="11.006575357144122"><ele>131.0</ele><time>2026-04-18T12:17:46.999Z</time></trkpt><trkpt lat="45.45258398623304" lon="11.00651858466858"><ele>131.0</ele><time>2026-04-18T12:17:47.999Z</time></trkpt><trkpt lat="45.45248625551085" lon="11.006411304496973"><ele>131.0</ele><time>2026-04-18T12:17:49.999Z</time></trkpt><trkpt lat="45.45241849005232" lon="11.006287871143073"><ele>131.0</ele><time>2026-04-18T12:17:51.999Z</time></trkpt><trkpt lat="45.45234898662668" lon="11.006225372552297"><ele>131.0</ele><time>2026-04-18T12:17:53.999Z</time></trkpt><trkpt lat="45.45228552741956" lon="11.006157756847726"><ele>131.0</ele><time>2026-04-18T12:17:55.999Z</time></trkpt><trkpt lat="45.452209955416336" lon="11.006121545669384"><ele>131.0</ele><time>2026-04-18T12:17:57.999Z</time></trkpt><trkpt lat="45.45214289967932" lon="11.006012482211052"><ele>131.0</ele><time>2026-04-18T12:17:59.999Z</time></trkpt><trkpt lat="45.45205696049153" lon="11.005908026716245"><ele>131.0</ele><time>2026-04-18T12:18:02.999Z</time></trkpt><trkpt lat="45.45202764875415" lon="11.005825878141481"><ele>131.0</ele><time>2026-04-18T12:18:03.999Z</time></trkpt><trkpt lat="45.45200249845795" lon="11.005734937831733"><ele>131.0</ele><time>2026-04-18T12:18:04.999Z</time></trkpt><trkpt lat="45.45190880755868" lon="11.005668770555188"><ele>129.0</ele><time>2026-04-18T12:18:06.999Z</time></trkpt><trkpt lat="45.45183702916106" lon="11.0056086648687"><ele>127.0</ele><time>2026-04-18T12:18:08.999Z</time></trkpt><trkpt lat="45.45178775234469" lon="11.005528440474027"><ele>125.0</ele><time>2026-04-18T12:18:09.999Z</time></trkpt><trkpt lat="45.45173678495389" lon="11.005424926691795"><ele>123.0</ele><time>2026-04-18T12:18:10.999Z</time></trkpt><trkpt lat="45.45169179997108" lon="11.005354551885647"><ele>120.99999999999999</ele><time>2026-04-18T12:18:11.999Z</time></trkpt><trkpt lat="45.45158925601654" lon="11.005239630496037"><ele>119.0</ele><time>2026-04-18T12:18:13.999Z</time></trkpt><trkpt lat="45.45153537036593" lon="11.005125463457787"><ele>119.0</ele><time>2026-04-18T12:18:15.998Z</time></trkpt><trkpt lat="45.45147974324602" lon="11.005023732891766"><ele>119.0</ele><time>2026-04-18T12:18:17.998Z</time></trkpt><trkpt lat="45.451434713943634" lon="11.0048531765884"><ele>119.0</ele><time>2026-04-18T12:18:19.998Z</time></trkpt><trkpt lat="45.4513382738306" lon="11.004762635095677"><ele>119.0</ele><time>2026-04-18T12:18:21.998Z</time></trkpt><trkpt lat="45.45131404074198" lon="11.004678962944665"><ele>119.0</ele><time>2026-04-18T12:18:23.998Z</time></trkpt><trkpt lat="45.451266221487465" lon="11.004618195926426"><ele>116.80000000000001</ele><time>2026-04-18T12:18:25.998Z</time></trkpt><trkpt lat="45.45120534747008" lon="11.004485678383038"><ele>114.60000000000001</ele><time>2026-04-18T12:18:27.998Z</time></trkpt><trkpt lat="45.451152586884135" lon="11.004414108505534"><ele>112.4</ele><time>2026-04-18T12:18:30.998Z</time></trkpt><trkpt lat="45.4512323080003" lon="11.004429227929647"><ele>110.2</ele><time>2026-04-18T12:18:34.998Z</time></trkpt><trkpt lat="45.451306840191386" lon="11.00448866056092"><ele>108.0</ele><time>2026-04-18T12:18:36.998Z</time></trkpt><trkpt lat="45.45141844924413" lon="11.00454348241446"><ele>106.2</ele><time>2026-04-18T12:18:39.998Z</time></trkpt><trkpt lat="45.45150506535265" lon="11.004617603918314"><ele>104.4</ele><time>2026-04-18T12:18:41.998Z</time></trkpt><trkpt lat="45.45160461721643" lon="11.004674410973879"><ele>102.60000000000001</ele><time>2026-04-18T12:18:43.998Z</time></trkpt><trkpt lat="45.45166480592899" lon="11.00476924914705"><ele>100.80000000000001</ele><time>2026-04-18T12:18:46Z</time></trkpt><trkpt lat="45.451770712528045" lon="11.004821863561139"><ele>99.0</ele><time>2026-04-18T12:18:48Z</time></trkpt><trkpt lat="45.45182851279849" lon="11.004871598346938"><ele>99.0</ele><time>2026-04-18T12:18:50Z</time></trkpt><trkpt lat="45.45193524565031" lon="11.004896357327942"><ele>99.0</ele><time>2026-04-18T12:18:52Z</time></trkpt><trkpt lat="45.45202261965675" lon="11.004892614032347"><ele>99.0</ele><time>2026-04-18T12:18:54Z</time></trkpt><trkpt lat="45.45210332097261" lon="11.004815033809196"><ele>99.0</ele><time>2026-04-18T12:18:56Z</time></trkpt><trkpt lat="45.45214920295107" lon="11.004704196605124"><ele>99.0</ele><time>2026-04-18T12:18:58Z</time></trkpt><trkpt lat="45.45213029316393" lon="11.004597482348336"><ele>99.0</ele><time>2026-04-18T12:19:00Z</time></trkpt><trkpt lat="45.452037806673985" lon="11.00451455862615"><ele>99.0</ele><time>2026-04-18T12:19:02Z</time></trkpt><trkpt lat="45.45197113829936" lon="11.004509602470439"><ele>99.0</ele><time>2026-04-18T12:19:03Z</time></trkpt><trkpt lat="45.45183548185518" lon="11.004480491441639"><ele>99.0</ele><time>2026-04-18T12:19:05Z</time></trkpt><trkpt lat="45.45176964954625" lon="11.00446084100876"><ele>99.0</ele><time>2026-04-18T12:19:06Z</time></trkpt><trkpt lat="45.45164414254409" lon="11.004429262387463"><ele>99.0</ele><time>2026-04-18T12:19:08Z</time></trkpt><trkpt lat="45.45157910248948" lon="11.004390449838283"><ele>99.0</ele><time>2026-04-18T12:19:09Z</time></trkpt><trkpt lat="45.451507446155354" lon="11.004358434581931"><ele>99.0</ele><time>2026-04-18T12:19:10Z</time></trkpt><trkpt lat="45.451435426728025" lon="11.00432284618238"><ele>99.0</ele><time>2026-04-18T12:19:11Z</time></trkpt><trkpt lat="45.451359366839164" lon="11.004294182937704"><ele>99.0</ele><time>2026-04-18T12:19:12Z</time></trkpt><trkpt lat="45.451288877550596" lon="11.004243768966735"><ele>99.0</ele><time>2026-04-18T12:19:13Z</time></trkpt><trkpt lat="45.45121524907698" lon="11.004197123763355"><ele>97.4</ele><time>2026-04-18T12:19:14Z</time></trkpt><trkpt lat="45.451079724876294" lon="11.004106731311069"><ele>95.80000000000001</ele><time>2026-04-18T12:19:16Z</time></trkpt><trkpt lat="45.45098349992804" lon="11.004070377412088"><ele>94.19999999999999</ele><time>2026-04-18T12:19:17Z</time></trkpt><trkpt lat="45.45090393926964" lon="11.004069523929653"><ele>92.6</ele><time>2026-04-18T12:19:18Z</time></trkpt><trkpt lat="45.45081609226134" lon="11.00406948338043"><ele>91.0</ele><time>2026-04-18T12:19:19Z</time></trkpt><trkpt lat="45.45073002090308" lon="11.004064621814678"><ele>91.0</ele><time>2026-04-18T12:19:20Z</time></trkpt><trkpt lat="45.45064455435132" lon="11.004031728279836"><ele>91.0</ele><time>2026-04-18T12:19:21Z</time></trkpt><trkpt lat="45.45058848306491" lon="11.003957464138054"><ele>91.0</ele><time>2026-04-18T12:19:22Z</time></trkpt><trkpt lat="45.45056542274226" lon="11.003866821615393"><ele>91.0</ele><time>2026-04-18T12:19:23Z</time></trkpt><trkpt lat="45.45057873756696" lon="11.003751700015915"><ele>91.0</ele><time>2026-04-18T12:19:24Z</time></trkpt><trkpt lat="45.450637991646964" lon="11.003663304513056"><ele>91.0</ele><time>2026-04-18T12:19:25Z</time></trkpt><trkpt lat="45.450708976395006" lon="11.003622087853522"><ele>91.0</ele><time>2026-04-18T12:19:26Z</time></trkpt><trkpt lat="45.450794126432406" lon="11.003641626881757"><ele>91.0</ele><time>2026-04-18T12:19:27Z</time></trkpt><trkpt lat="45.45086397859285" lon="11.003691558238872"><ele>91.0</ele><time>2026-04-18T12:19:28Z</time></trkpt><trkpt lat="45.45097047592882" lon="11.003791709820314"><ele>91.0</ele><time>2026-04-18T12:19:29.999Z</time></trkpt><trkpt lat="45.45103775417223" lon="11.003843759019524"><ele>91.0</ele><time>2026-04-18T12:19:30.999Z</time></trkpt><trkpt lat="45.451103315207575" lon="11.003882164111243"><ele>91.0</ele><time>2026-04-18T12:19:31.999Z</time></trkpt><trkpt lat="45.451171610819316" lon="11.003920932989093"><ele>91.0</ele><time>2026-04-18T12:19:32.999Z</time></trkpt><trkpt lat="45.451237084747696" lon="11.00395873347063"><ele>91.0</ele><time>2026-04-18T12:19:33.999Z</time></trkpt><trkpt lat="45.451299914020126" lon="11.004024519774212"><ele>91.0</ele><time>2026-04-18T12:19:34.999Z</time></trkpt><trkpt lat="45.4513765367126" lon="11.00406573466979"><ele>91.0</ele><time>2026-04-18T12:19:35.999Z</time></trkpt><trkpt lat="45.45144932614283" lon="11.004115587330654"><ele>91.0</ele><time>2026-04-18T12:19:36.999Z</time></trkpt><trkpt lat="45.45151832154781" lon="11.004159457948615"><ele>91.0</ele><time>2026-04-18T12:19:37.999Z</time></trkpt><trkpt lat="45.451590062466806" lon="11.004179334155117"><ele>90.83333333333333</ele><time>2026-04-18T12:19:38.999Z</time></trkpt><trkpt lat="45.4516510608039" lon="11.004150130689794"><ele>90.66666666666666</ele><time>2026-04-18T12:19:39.999Z</time></trkpt><trkpt lat="45.45171727708771" lon="11.004033625456902"><ele>90.5</ele><time>2026-04-18T12:19:40.999Z</time></trkpt><trkpt lat="45.45172343651131" lon="11.003894122089775"><ele>90.33333333333333</ele><time>2026-04-18T12:19:41.999Z</time></trkpt><trkpt lat="45.4516829999035" lon="11.003791962122495"><ele>90.16666666666667</ele><time>2026-04-18T12:19:42.999Z</time></trkpt><trkpt lat="45.45161763397986" lon="11.003727394844908"><ele>90.0</ele><time>2026-04-18T12:19:43.999Z</time></trkpt><trkpt lat="45.4515351321419" lon="11.003713094805876"><ele>90.0</ele><time>2026-04-18T12:19:44.999Z</time></trkpt><trkpt lat="45.45144704258784" lon="11.0037184635352"><ele>90.0</ele><time>2026-04-18T12:19:45.999Z</time></trkpt><trkpt lat="45.45136828731722" lon="11.003708764613588"><ele>90.0</ele><time>2026-04-18T12:19:46.999Z</time></trkpt><trkpt lat="45.45130211387508" lon="11.003674898055143"><ele>90.0</ele><time>2026-04-18T12:19:47.999Z</time></trkpt><trkpt lat="45.45122850398582" lon="11.003647233447232"><ele>90.0</ele><time>2026-04-18T12:19:48.999Z</time></trkpt><trkpt lat="45.45116423177275" lon="11.003622601852554"><ele>90.0</ele><time>2026-04-18T12:19:49.999Z</time></trkpt><trkpt lat="45.451084308457226" lon="11.003567527428356"><ele>90.16666666666667</ele><time>2026-04-18T12:19:50.999Z</time></trkpt><trkpt lat="45.45102152899666" lon="11.003502139158185"><ele>90.33333333333333</ele><time>2026-04-18T12:19:51.999Z</time></trkpt><trkpt lat="45.45094237553966" lon="11.003453750440723"><ele>90.5</ele><time>2026-04-18T12:19:52.999Z</time></trkpt><trkpt lat="45.45088761815848" lon="11.003367111379626"><ele>90.66666666666666</ele><time>2026-04-18T12:19:53.999Z</time></trkpt><trkpt lat="45.45083936338954" lon="11.003263693897456"><ele>90.83333333333333</ele><time>2026-04-18T12:19:54.999Z</time></trkpt><trkpt lat="45.45080569179451" lon="11.003147240076421"><ele>91.0</ele><time>2026-04-18T12:19:55.999Z</time></trkpt><trkpt lat="45.4507720536805" lon="11.003023128929392"><ele>89.6</ele><time>2026-04-18T12:19:56.999Z</time></trkpt><trkpt lat="45.45074917934164" lon="11.002895467411696"><ele>88.19999999999999</ele><time>2026-04-18T12:19:57.999Z</time></trkpt><trkpt lat="45.450750377086194" lon="11.002759184306472"><ele>86.80000000000001</ele><time>2026-04-18T12:19:58.999Z</time></trkpt><trkpt lat="45.45076721229719" lon="11.002623385695763"><ele>85.4</ele><time>2026-04-18T12:19:59.999Z</time></trkpt><trkpt lat="45.45077665285075" lon="11.002484588140753"><ele>84.0</ele><time>2026-04-18T12:20:00.999Z</time></trkpt><trkpt lat="45.450789730207156" lon="11.002349128570609"><ele>83.2</ele><time>2026-04-18T12:20:01.999Z</time></trkpt><trkpt lat="45.450799229709546" lon="11.002211321295263"><ele>82.4</ele><time>2026-04-18T12:20:02.999Z</time></trkpt><trkpt lat="45.45080442825481" lon="11.002068160394144"><ele>81.6</ele><time>2026-04-18T12:20:03.999Z</time></trkpt><trkpt lat="45.45081438155434" lon="11.001927454208799"><ele>80.8</ele><time>2026-04-18T12:20:04.999Z</time></trkpt><trkpt lat="45.45082744252929" lon="11.001784723651712"><ele>80.0</ele><time>2026-04-18T12:20:05.999Z</time></trkpt><trkpt lat="45.450836240438406" lon="11.00164360690594"><ele>79.4</ele><time>2026-04-18T12:20:06.999Z</time></trkpt><trkpt lat="45.45084339169714" lon="11.001494510343788"><ele>78.8</ele><time>2026-04-18T12:20:07.999Z</time></trkpt><trkpt lat="45.450855188047896" lon="11.001349123474299"><ele>78.2</ele><time>2026-04-18T12:20:08.999Z</time></trkpt><trkpt lat="45.45087548373174" lon="11.001209740168886"><ele>77.6</ele><time>2026-04-18T12:20:09.999Z</time></trkpt><trkpt lat="45.45089381643401" lon="11.001076316198422"><ele>77.0</ele><time>2026-04-18T12:20:10.999Z</time></trkpt><trkpt lat="45.450914347230274" lon="11.000938104645511"><ele>76.2</ele><time>2026-04-18T12:20:11.999Z</time></trkpt><trkpt lat="45.450940273466244" lon="11.000803221169985"><ele>75.4</ele><time>2026-04-18T12:20:12.999Z</time></trkpt><trkpt lat="45.45096879896199" lon="11.000684399816782"><ele>74.6</ele><time>2026-04-18T12:20:13.999Z</time></trkpt><trkpt lat="45.45098372124832" lon="11.000555043325134"><ele>73.8</ele><time>2026-04-18T12:20:14.999Z</time></trkpt><trkpt lat="45.45099336721935" lon="11.000429303205381"><ele>73.0</ele><time>2026-04-18T12:20:15.999Z</time></trkpt><trkpt lat="45.45100834347333" lon="11.000312024825497"><ele>73.0</ele><time>2026-04-18T12:20:16.999Z</time></trkpt><trkpt lat="45.45102471848016" lon="11.000202505592238"><ele>73.0</ele><time>2026-04-18T12:20:17.999Z</time></trkpt><trkpt lat="45.451031557626095" lon="11.000091252518043"><ele>73.0</ele><time>2026-04-18T12:20:18.999Z</time></trkpt><trkpt lat="45.45104450257176" lon="10.999987004083748"><ele>73.0</ele><time>2026-04-18T12:20:19.999Z</time></trkpt><trkpt lat="45.4510573808629" lon="10.999880328907468"><ele>73.0</ele><time>2026-04-18T12:20:20.999Z</time></trkpt><trkpt lat="45.45107514796585" lon="10.999780948752932"><ele>73.0</ele><time>2026-04-18T12:20:21.999Z</time></trkpt><trkpt lat="45.45108927557318" lon="10.999679568792132"><ele>73.0</ele><time>2026-04-18T12:20:22.999Z</time></trkpt><trkpt lat="45.45110054799716" lon="10.999584057374658"><ele>73.0</ele><time>2026-04-18T12:20:23.998Z</time></trkpt><trkpt lat="45.45111311186775" lon="10.999494124913703"><ele>73.0</ele><time>2026-04-18T12:20:24.998Z</time></trkpt><trkpt lat="45.45112845049897" lon="10.99934796631864"><ele>73.0</ele><time>2026-04-18T12:20:26.998Z</time></trkpt><trkpt lat="45.451136967821014" lon="10.999191339000635"><ele>73.0</ele><time>2026-04-18T12:20:28.998Z</time></trkpt><trkpt lat="45.45115419138221" lon="10.99904751855904"><ele>73.0</ele><time>2026-04-18T12:20:30.998Z</time></trkpt><trkpt lat="45.4511573706689" lon="10.99889046591816"><ele>73.0</ele><time>2026-04-18T12:20:32.998Z</time></trkpt><trkpt lat="45.4511637280357" lon="10.998740286344825"><ele>73.0</ele><time>2026-04-18T12:20:34.998Z</time></trkpt><trkpt lat="45.45116694530118" lon="10.998596340950204"><ele>73.0</ele><time>2026-04-18T12:20:36.998Z</time></trkpt><trkpt lat="45.45115084818758" lon="10.998463430994642"><ele>73.0</ele><time>2026-04-18T12:20:38.998Z</time></trkpt><trkpt lat="45.45111073510773" lon="10.998339174506738"><ele>73.0</ele><time>2026-04-18T12:20:40.998Z</time></trkpt><trkpt lat="45.451073752550634" lon="10.998211001526148"><ele>73.4</ele><time>2026-04-18T12:20:42.998Z</time></trkpt><trkpt lat="45.45101846762581" lon="10.998091921532318"><ele>73.8</ele><time>2026-04-18T12:20:44.998Z</time></trkpt><trkpt lat="45.45097920614886" lon="10.997968887958901"><ele>74.2</ele><time>2026-04-18T12:20:46.998Z</time></trkpt><trkpt lat="45.45092468847626" lon="10.997815787906815"><ele>74.6</ele><time>2026-04-18T12:20:48.998Z</time></trkpt><trkpt lat="45.45086550177092" lon="10.997695440667526"><ele>75.0</ele><time>2026-04-18T12:20:51Z</time></trkpt><trkpt lat="45.450816552016235" lon="10.997548340783874"><ele>75.0</ele><time>2026-04-18T12:20:53Z</time></trkpt><trkpt lat="45.450751945990135" lon="10.997417204621879"><ele>75.0</ele><time>2026-04-18T12:20:55Z</time></trkpt><trkpt lat="45.4507047413319" lon="10.997278928720402"><ele>75.0</ele><time>2026-04-18T12:20:57Z</time></trkpt><trkpt lat="45.45064782438107" lon="10.997148061741324"><ele>75.0</ele><time>2026-04-18T12:20:59Z</time></trkpt><trkpt lat="45.45061498347782" lon="10.996996292367564"><ele>75.0</ele><time>2026-04-18T12:21:01Z</time></trkpt><trkpt lat="45.45056027526127" lon="10.996871295332387"><ele>75.0</ele><time>2026-04-18T12:21:03Z</time></trkpt><trkpt lat="45.450503859717166" lon="10.996741258413484"><ele>75.0</ele><time>2026-04-18T12:21:05Z</time></trkpt><trkpt lat="45.45045315879273" lon="10.996615284383672"><ele>75.0</ele><time>2026-04-18T12:21:07Z</time></trkpt><trkpt lat="45.45039581543756" lon="10.996503141266423"><ele>75.0</ele><time>2026-04-18T12:21:09Z</time></trkpt><trkpt lat="45.450358532912325" lon="10.996384629737697"><ele>75.0</ele><time>2026-04-18T12:21:11Z</time></trkpt><trkpt lat="45.450324813732806" lon="10.996240472134124"><ele>74.0</ele><time>2026-04-18T12:21:13Z</time></trkpt><trkpt lat="45.450292994169196" lon="10.9961082595295"><ele>73.0</ele><time>2026-04-18T12:21:15Z</time></trkpt><trkpt lat="45.450261828545635" lon="10.995981740088544"><ele>72.0</ele><time>2026-04-18T12:21:17Z</time></trkpt><trkpt lat="45.45022726243889" lon="10.995839606602104"><ele>71.0</ele><time>2026-04-18T12:21:19Z</time></trkpt><trkpt lat="45.45019334750877" lon="10.995704151379844"><ele>70.0</ele><time>2026-04-18T12:21:21Z</time></trkpt><trkpt lat="45.450158121638786" lon="10.995574406286806"><ele>70.0</ele><time>2026-04-18T12:21:23Z</time></trkpt><trkpt lat="45.450123542668464" lon="10.99544770931363"><ele>70.0</ele><time>2026-04-18T12:21:25Z</time></trkpt><trkpt lat="45.45009818002944" lon="10.995295658633678"><ele>70.0</ele><time>2026-04-18T12:21:27Z</time></trkpt><trkpt lat="45.45005374130765" lon="10.995167008603113"><ele>70.0</ele><time>2026-04-18T12:21:29Z</time></trkpt><trkpt lat="45.45001804905503" lon="10.995028343547995"><ele>70.0</ele><time>2026-04-18T12:21:31Z</time></trkpt><trkpt lat="45.449974612985876" lon="10.994897469852523"><ele>70.2</ele><time>2026-04-18T12:21:32.999Z</time></trkpt><trkpt lat="45.44995242880378" lon="10.994748952084818"><ele>70.4</ele><time>2026-04-18T12:21:34.999Z</time></trkpt><trkpt lat="45.44991186290119" lon="10.994608206175835"><ele>70.6</ele><time>2026-04-18T12:21:36.999Z</time></trkpt><trkpt lat="45.44987685628945" lon="10.99447408843457"><ele>70.8</ele><time>2026-04-18T12:21:38.999Z</time></trkpt><trkpt lat="45.449841829295984" lon="10.994333076065798"><ele>71.0</ele><time>2026-04-18T12:21:40.999Z</time></trkpt><trkpt lat="45.44980111167758" lon="10.99419881882511"><ele>71.39999999999999</ele><time>2026-04-18T12:21:42.999Z</time></trkpt><trkpt lat="45.44980523676523" lon="10.994043400186928"><ele>71.8</ele><time>2026-04-18T12:21:44.999Z</time></trkpt><trkpt lat="45.449807688868056" lon="10.993889008365679"><ele>72.19999999999999</ele><time>2026-04-18T12:21:46.999Z</time></trkpt><trkpt lat="45.4498278595398" lon="10.993744253482875"><ele>72.6</ele><time>2026-04-18T12:21:48.999Z</time></trkpt><trkpt lat="45.44986155641278" lon="10.993600255764525"><ele>73.0</ele><time>2026-04-18T12:21:50.999Z</time></trkpt><trkpt lat="45.44989185012136" lon="10.993457418510843"><ele>72.8</ele><time>2026-04-18T12:21:52.999Z</time></trkpt><trkpt lat="45.449925350171554" lon="10.993319339886181"><ele>72.6</ele><time>2026-04-18T12:21:54.999Z</time></trkpt><trkpt lat="45.4499563609307" lon="10.993189787232055"><ele>72.4</ele><time>2026-04-18T12:21:56.999Z</time></trkpt><trkpt lat="45.44998292675823" lon="10.993056408531203"><ele>72.2</ele><time>2026-04-18T12:21:58.999Z</time></trkpt><trkpt lat="45.45001529208049" lon="10.992942737011889"><ele>72.0</ele><time>2026-04-18T12:22:00.999Z</time></trkpt><trkpt lat="45.45005467280632" lon="10.992820790561801"><ele>72.0</ele><time>2026-04-18T12:22:02.999Z</time></trkpt><trkpt lat="45.45009776563969" lon="10.992677469730024"><ele>72.0</ele><time>2026-04-18T12:22:04.999Z</time></trkpt><trkpt lat="45.45013863656959" lon="10.99254416900663"><ele>72.0</ele><time>2026-04-18T12:22:06.999Z</time></trkpt><trkpt lat="45.45018313276393" lon="10.992426643716009"><ele>72.0</ele><time>2026-04-18T12:22:08.999Z</time></trkpt><trkpt lat="45.450235888759885" lon="10.992313294533915"><ele>72.0</ele><time>2026-04-18T12:22:10.999Z</time></trkpt><trkpt lat="45.45029174711529" lon="10.992182566617275"><ele>71.8</ele><time>2026-04-18T12:22:12.999Z</time></trkpt><trkpt lat="45.45033752784674" lon="10.992042908734959"><ele>71.6</ele><time>2026-04-18T12:22:14.999Z</time></trkpt><trkpt lat="45.450380725678585" lon="10.991910840237932"><ele>71.39999999999999</ele><time>2026-04-18T12:22:16.999Z</time></trkpt><trkpt lat="45.45040149332399" lon="10.99176551305521"><ele>71.2</ele><time>2026-04-18T12:22:18.999Z</time></trkpt><trkpt lat="45.4504323047132" lon="10.991621585004545"><ele>71.0</ele><time>2026-04-18T12:22:20.999Z</time></trkpt><trkpt lat="45.45045883964049" lon="10.991475173527185"><ele>72.0</ele><time>2026-04-18T12:22:22.999Z</time></trkpt><trkpt lat="45.450500260884844" lon="10.991333094452278"><ele>73.0</ele><time>2026-04-18T12:22:24.998Z</time></trkpt><trkpt lat="45.45054090820677" lon="10.99118515397618"><ele>74.0</ele><time>2026-04-18T12:22:26.998Z</time></trkpt><trkpt lat="45.450588047792465" lon="10.991048563123849"><ele>75.0</ele><time>2026-04-18T12:22:28.998Z</time></trkpt><trkpt lat="45.45063052281219" lon="10.99093050253194"><ele>76.0</ele><time>2026-04-18T12:22:30.998Z</time></trkpt><trkpt lat="45.450671485996345" lon="10.990796715271356"><ele>76.0</ele><time>2026-04-18T12:22:32.998Z</time></trkpt><trkpt lat="45.45071072355317" lon="10.990658010103434"><ele>76.0</ele><time>2026-04-18T12:22:34.998Z</time></trkpt><trkpt lat="45.45075689032342" lon="10.990541677554702"><ele>76.0</ele><time>2026-04-18T12:22:36.998Z</time></trkpt><trkpt lat="45.450802780335835" lon="10.990420764363614"><ele>76.0</ele><time>2026-04-18T12:22:38.998Z</time></trkpt><trkpt lat="45.450858964309326" lon="10.990302207057876"><ele>76.0</ele><time>2026-04-18T12:22:40.998Z</time></trkpt><trkpt lat="45.4509062803628" lon="10.990190988343945"><ele>76.0</ele><time>2026-04-18T12:22:42.998Z</time></trkpt><trkpt lat="45.45095428208495" lon="10.990087554547042"><ele>76.0</ele><time>2026-04-18T12:22:44.998Z</time></trkpt><trkpt lat="45.45099890703116" lon="10.989979515951216"><ele>76.0</ele><time>2026-04-18T12:22:46.998Z</time></trkpt><trkpt lat="45.45104698147831" lon="10.989858209336544"><ele>76.0</ele><time>2026-04-18T12:22:48.998Z</time></trkpt><trkpt lat="45.451105609962575" lon="10.989727159386726"><ele>76.0</ele><time>2026-04-18T12:22:50.998Z</time></trkpt><trkpt lat="45.45117252235111" lon="10.989597293250089"><ele>76.39999999999999</ele><time>2026-04-18T12:22:52.998Z</time></trkpt><trkpt lat="45.451252929500654" lon="10.989472547338853"><ele>76.8</ele><time>2026-04-18T12:22:54.998Z</time></trkpt><trkpt lat="45.451326811821" lon="10.989352775355647"><ele>77.19999999999999</ele><time>2026-04-18T12:22:57Z</time></trkpt><trkpt lat="45.45139597452474" lon="10.989234190115715"><ele>77.6</ele><time>2026-04-18T12:22:59Z</time></trkpt><trkpt lat="45.45145327890156" lon="10.989112722738454"><ele>78.0</ele><time>2026-04-18T12:23:01Z</time></trkpt><trkpt lat="45.451518331833654" lon="10.989000113678404"><ele>76.6</ele><time>2026-04-18T12:23:03Z</time></trkpt><trkpt lat="45.45157839207316" lon="10.988876918496578"><ele>75.19999999999999</ele><time>2026-04-18T12:23:05Z</time></trkpt><trkpt lat="45.451633309549024" lon="10.988755248734437"><ele>73.8</ele><time>2026-04-18T12:23:07Z</time></trkpt><trkpt lat="45.45171236691139" lon="10.988644038328344"><ele>72.39999999999999</ele><time>2026-04-18T12:23:09Z</time></trkpt><trkpt lat="45.451788454580694" lon="10.988547162377632"><ele>71.0</ele><time>2026-04-18T12:23:11Z</time></trkpt><trkpt lat="45.45185703992974" lon="10.988449243001684"><ele>71.0</ele><time>2026-04-18T12:23:13Z</time></trkpt><trkpt lat="45.451923436967206" lon="10.988348629248462"><ele>71.0</ele><time>2026-04-18T12:23:15Z</time></trkpt><trkpt lat="45.45200111230563" lon="10.988257650144165"><ele>71.0</ele><time>2026-04-18T12:23:17Z</time></trkpt><trkpt lat="45.452059727512356" lon="10.988157594624061"><ele>71.0</ele><time>2026-04-18T12:23:19Z</time></trkpt><trkpt lat="45.452110268531136" lon="10.98805437535675"><ele>71.0</ele><time>2026-04-18T12:23:21Z</time></trkpt><trkpt lat="45.45216271088571" lon="10.987964908706017"><ele>71.33333333333334</ele><time>2026-04-18T12:23:23Z</time></trkpt><trkpt lat="45.45222193108532" lon="10.987915260436429"><ele>71.66666666666667</ele><time>2026-04-18T12:23:25Z</time></trkpt><trkpt lat="45.45230530695314" lon="10.98790213414959"><ele>72.0</ele><time>2026-04-18T12:23:27Z</time></trkpt><trkpt lat="45.452398215260985" lon="10.987868769240137"><ele>72.33333333333333</ele><time>2026-04-18T12:23:29Z</time></trkpt><trkpt lat="45.45249100131998" lon="10.987827158381881"><ele>72.66666666666666</ele><time>2026-04-18T12:23:31Z</time></trkpt><trkpt lat="45.45259066167294" lon="10.987818480917092"><ele>73.0</ele><time>2026-04-18T12:23:33Z</time></trkpt><trkpt lat="45.45268447841429" lon="10.987790779753993"><ele>73.0</ele><time>2026-04-18T12:23:35Z</time></trkpt><trkpt lat="45.45276872302957" lon="10.987756810982718"><ele>73.0</ele><time>2026-04-18T12:23:36.999Z</time></trkpt><trkpt lat="45.45284772929311" lon="10.987724556421238"><ele>73.0</ele><time>2026-04-18T12:23:38.999Z</time></trkpt><trkpt lat="45.452929246566654" lon="10.987692230493696"><ele>73.0</ele><time>2026-04-18T12:23:40.999Z</time></trkpt><trkpt lat="45.45300573869837" lon="10.987638290592416"><ele>73.0</ele><time>2026-04-18T12:23:42.999Z</time></trkpt><trkpt lat="45.45309684338963" lon="10.987585258286682"><ele>73.0</ele><time>2026-04-18T12:23:44.999Z</time></trkpt><trkpt lat="45.45318229072805" lon="10.987538419203014"><ele>73.6</ele><time>2026-04-18T12:23:46.999Z</time></trkpt><trkpt lat="45.45326861682452" lon="10.987506255821971"><ele>74.19999999999999</ele><time>2026-04-18T12:23:48.999Z</time></trkpt><trkpt lat="45.453369914328356" lon="10.9874946565431"><ele>74.8</ele><time>2026-04-18T12:23:50.999Z</time></trkpt><trkpt lat="45.45346199037411" lon="10.987477840776616"><ele>75.39999999999999</ele><time>2026-04-18T12:23:52.999Z</time></trkpt><trkpt lat="45.453555857679916" lon="10.987466452886771"><ele>76.0</ele><time>2026-04-18T12:23:54.999Z</time></trkpt><trkpt lat="45.45364216398483" lon="10.987436332556133"><ele>76.0</ele><time>2026-04-18T12:23:56.999Z</time></trkpt><trkpt lat="45.45372544852904" lon="10.987426730462294"><ele>76.0</ele><time>2026-04-18T12:23:58.999Z</time></trkpt><trkpt lat="45.45381615112644" lon="10.987370771151463"><ele>76.0</ele><time>2026-04-18T12:24:00.999Z</time></trkpt><trkpt lat="45.45389932563416" lon="10.98733858291645"><ele>76.0</ele><time>2026-04-18T12:24:02.999Z</time></trkpt><trkpt lat="45.45397215545048" lon="10.987294574434772"><ele>76.0</ele><time>2026-04-18T12:24:04.999Z</time></trkpt><trkpt lat="45.45404803596772" lon="10.987206304190027"><ele>76.0</ele><time>2026-04-18T12:24:06.999Z</time></trkpt><trkpt lat="45.4541163859892" lon="10.98715036278471"><ele>76.83333333333333</ele><time>2026-04-18T12:24:08.999Z</time></trkpt><trkpt lat="45.454190026336825" lon="10.987114390881528"><ele>77.66666666666666</ele><time>2026-04-18T12:24:10.999Z</time></trkpt><trkpt lat="45.45424002973105" lon="10.987034550491646"><ele>78.5</ele><time>2026-04-18T12:24:12.999Z</time></trkpt><trkpt lat="45.45432565714368" lon="10.986963763275561"><ele>79.33333333333333</ele><time>2026-04-18T12:24:14.999Z</time></trkpt><trkpt lat="45.45440974751565" lon="10.986913484888468"><ele>80.16666666666667</ele><time>2026-04-18T12:24:16.999Z</time></trkpt><trkpt lat="45.45449724580636" lon="10.98687165910985"><ele>81.0</ele><time>2026-04-18T12:24:18.999Z</time></trkpt><trkpt lat="45.45458829079394" lon="10.986836136329286"><ele>80.6</ele><time>2026-04-18T12:24:20.999Z</time></trkpt><trkpt lat="45.454669132099404" lon="10.98676527458031"><ele>80.19999999999999</ele><time>2026-04-18T12:24:22.999Z</time></trkpt><trkpt lat="45.45474872176611" lon="10.986717795886115"><ele>79.80000000000001</ele><time>2026-04-18T12:24:24.999Z</time></trkpt><trkpt lat="45.45484131373813" lon="10.986690782389658"><ele>79.4</ele><time>2026-04-18T12:24:26.999Z</time></trkpt><trkpt lat="45.454935555141226" lon="10.986668432945367"><ele>79.0</ele><time>2026-04-18T12:24:28.998Z</time></trkpt><trkpt lat="45.455028168202674" lon="10.986642981891329"><ele>78.5</ele><time>2026-04-18T12:24:30.998Z</time></trkpt><trkpt lat="45.45511745492829" lon="10.98660505322306"><ele>78.0</ele><time>2026-04-18T12:24:32.998Z</time></trkpt><trkpt lat="45.45520319966934" lon="10.98656477561867"><ele>77.5</ele><time>2026-04-18T12:24:34.998Z</time></trkpt><trkpt lat="45.455289801064716" lon="10.986523375783527"><ele>77.0</ele><time>2026-04-18T12:24:36.998Z</time></trkpt><trkpt lat="45.45537373727932" lon="10.986478568923207"><ele>76.5</ele><time>2026-04-18T12:24:38.998Z</time></trkpt><trkpt lat="45.455450547071855" lon="10.986430662663604"><ele>76.0</ele><time>2026-04-18T12:24:40.998Z</time></trkpt><trkpt lat="45.45551274807235" lon="10.98639471801674"><ele>76.0</ele><time>2026-04-18T12:24:42.998Z</time></trkpt><trkpt lat="45.455572035437044" lon="10.986353935492446"><ele>76.0</ele><time>2026-04-18T12:24:44.998Z</time></trkpt><trkpt lat="45.4556425307305" lon="10.986307152577966"><ele>76.0</ele><time>2026-04-18T12:24:46.998Z</time></trkpt><trkpt lat="45.45570776167017" lon="10.986267622356229"><ele>76.0</ele><time>2026-04-18T12:24:48.998Z</time></trkpt><trkpt lat="45.45577324957306" lon="10.986221423585809"><ele>76.0</ele><time>2026-04-18T12:24:50.998Z</time></trkpt><trkpt lat="45.455841226547754" lon="10.986193020272257"><ele>76.0</ele><time>2026-04-18T12:24:52.998Z</time></trkpt><trkpt lat="45.45591435622205" lon="10.986145144145455"><ele>76.0</ele><time>2026-04-18T12:24:55.998Z</time></trkpt><trkpt lat="45.4559816206869" lon="10.986121711732286"><ele>76.0</ele><time>2026-04-18T12:24:59.998Z</time></trkpt><trkpt lat="45.456040041789166" lon="10.986083417619096"><ele>76.0</ele><time>2026-04-18T12:25:01.998Z</time></trkpt><trkpt lat="45.456109149752876" lon="10.986041418283596"><ele>76.0</ele><time>2026-04-18T12:25:04Z</time></trkpt><trkpt lat="45.456174857394245" lon="10.98599826536688"><ele>76.0</ele><time>2026-04-18T12:25:06Z</time></trkpt><trkpt lat="45.45622159319135" lon="10.985930253876823"><ele>76.0</ele><time>2026-04-18T12:25:08Z</time></trkpt><trkpt lat="45.456277342967766" lon="10.985876301739987"><ele>76.0</ele><time>2026-04-18T12:25:09Z</time></trkpt><trkpt lat="45.45635252297403" lon="10.985812579620355"><ele>76.0</ele><time>2026-04-18T12:25:11Z</time></trkpt><trkpt lat="45.456433011299886" lon="10.98574622057228"><ele>77.4</ele><time>2026-04-18T12:25:13Z</time></trkpt><trkpt lat="45.45650215049176" lon="10.985698626005712"><ele>78.8</ele><time>2026-04-18T12:25:15Z</time></trkpt><trkpt lat="45.45655518106231" lon="10.985632539122161"><ele>80.2</ele><time>2026-04-18T12:25:17Z</time></trkpt><trkpt lat="45.45665698233073" lon="10.985562424423309"><ele>81.60000000000001</ele><time>2026-04-18T12:25:20Z</time></trkpt><trkpt lat="45.4567492953238" lon="10.985535009598438"><ele>83.0</ele><time>2026-04-18T12:25:22Z</time></trkpt><trkpt lat="45.45682948899166" lon="10.985461610589127"><ele>83.0</ele><time>2026-04-18T12:25:24Z</time></trkpt><trkpt lat="45.45690657888859" lon="10.985432764871836"><ele>83.0</ele><time>2026-04-18T12:25:26Z</time></trkpt><trkpt lat="45.456996055884886" lon="10.985407201481108"><ele>83.0</ele><time>2026-04-18T12:25:28Z</time></trkpt><trkpt lat="45.45708729735095" lon="10.985397222512432"><ele>83.0</ele><time>2026-04-18T12:25:30Z</time></trkpt><trkpt lat="45.45717297961671" lon="10.98538729126747"><ele>83.0</ele><time>2026-04-18T12:25:32Z</time></trkpt><trkpt lat="45.457263795102755" lon="10.985386527992143"><ele>83.0</ele><time>2026-04-18T12:25:34Z</time></trkpt><trkpt lat="45.45734243687342" lon="10.985369441022934"><ele>83.16666666666667</ele><time>2026-04-18T12:25:36Z</time></trkpt><trkpt lat="45.457423890225485" lon="10.985362018585498"><ele>83.33333333333334</ele><time>2026-04-18T12:25:38Z</time></trkpt><trkpt lat="45.45749292405812" lon="10.98536605833957"><ele>83.5</ele><time>2026-04-18T12:25:40Z</time></trkpt><trkpt lat="45.4575642556572" lon="10.985347860516093"><ele>83.66666666666667</ele><time>2026-04-18T12:25:41.999Z</time></trkpt><trkpt lat="45.45765075610843" lon="10.985309610930319"><ele>83.83333333333333</ele><time>2026-04-18T12:25:43.999Z</time></trkpt><trkpt lat="45.45774422949762" lon="10.985300622888795"><ele>84.0</ele><time>2026-04-18T12:25:45.999Z</time></trkpt><trkpt lat="45.45783210521812" lon="10.985295490791437"><ele>84.0</ele><time>2026-04-18T12:25:47.999Z</time></trkpt><trkpt lat="45.457924842867975" lon="10.985278027200941"><ele>84.0</ele><time>2026-04-18T12:25:49.999Z</time></trkpt><trkpt lat="45.45800001756154" lon="10.985255041573067"><ele>84.0</ele><time>2026-04-18T12:25:51.999Z</time></trkpt><trkpt lat="45.458098993579625" lon="10.985225246380718"><ele>84.0</ele><time>2026-04-18T12:25:53.999Z</time></trkpt><trkpt lat="45.458188409249225" lon="10.985214950712978"><ele>84.0</ele><time>2026-04-18T12:25:55.999Z</time></trkpt><trkpt lat="45.45828501478646" lon="10.985175308982571"><ele>83.80000000000001</ele><time>2026-04-18T12:25:57.999Z</time></trkpt><trkpt lat="45.45837990578631" lon="10.985157698271438"><ele>83.60000000000001</ele><time>2026-04-18T12:25:59.999Z</time></trkpt><trkpt lat="45.45847098971556" lon="10.985122936496776"><ele>83.4</ele><time>2026-04-18T12:26:01.999Z</time></trkpt><trkpt lat="45.45855970913904" lon="10.98508338099688"><ele>83.2</ele><time>2026-04-18T12:26:03.999Z</time></trkpt><trkpt lat="45.4586489503603" lon="10.985038963462074"><ele>83.0</ele><time>2026-04-18T12:26:05.999Z</time></trkpt><trkpt lat="45.4587416115206" lon="10.984999216177547"><ele>82.4</ele><time>2026-04-18T12:26:07.999Z</time></trkpt><trkpt lat="45.45883400284394" lon="10.984954712232046"><ele>81.80000000000001</ele><time>2026-04-18T12:26:09.999Z</time></trkpt><trkpt lat="45.458926488776555" lon="10.984914258541737"><ele>81.2</ele><time>2026-04-18T12:26:11.999Z</time></trkpt><trkpt lat="45.45901835347061" lon="10.984875430354748"><ele>80.6</ele><time>2026-04-18T12:26:13.999Z</time></trkpt><trkpt lat="45.459108719792766" lon="10.984825186435847"><ele>80.0</ele><time>2026-04-18T12:26:15.999Z</time></trkpt><trkpt lat="45.45920002763019" lon="10.984772955936473"><ele>80.0</ele><time>2026-04-18T12:26:17.999Z</time></trkpt><trkpt lat="45.45928994935775" lon="10.984721622103663"><ele>80.0</ele><time>2026-04-18T12:26:19.999Z</time></trkpt><trkpt lat="45.45938523239544" lon="10.984665145494613"><ele>80.0</ele><time>2026-04-18T12:26:21.999Z</time></trkpt><trkpt lat="45.45947887809099" lon="10.984616174948727"><ele>80.0</ele><time>2026-04-18T12:26:23.999Z</time></trkpt><trkpt lat="45.459567237625365" lon="10.984556059660008"><ele>80.0</ele><time>2026-04-18T12:26:25.999Z</time></trkpt><trkpt lat="45.45964671002691" lon="10.98446986678342"><ele>80.0</ele><time>2026-04-18T12:26:27.999Z</time></trkpt><trkpt lat="45.45971035035038" lon="10.98443839563956"><ele>80.0</ele><time>2026-04-18T12:26:28.999Z</time></trkpt><trkpt lat="45.459815221283606" lon="10.984359248752428"><ele>80.0</ele><time>2026-04-18T12:26:30.999Z</time></trkpt><trkpt lat="45.459898517825046" lon="10.984258034341128"><ele>80.0</ele><time>2026-04-18T12:26:32.999Z</time></trkpt><trkpt lat="45.4599803324669" lon="10.98415202740767"><ele>80.0</ele><time>2026-04-18T12:26:34.998Z</time></trkpt><trkpt lat="45.4600642507684" lon="10.984041438674703"><ele>79.8</ele><time>2026-04-18T12:26:36.998Z</time></trkpt><trkpt lat="45.460138491493936" lon="10.983923555507479"><ele>79.6</ele><time>2026-04-18T12:26:38.998Z</time></trkpt><trkpt lat="45.460193541868996" lon="10.983789628064846"><ele>79.4</ele><time>2026-04-18T12:26:40.998Z</time></trkpt><trkpt lat="45.4602562363688" lon="10.9836733905756"><ele>79.2</ele><time>2026-04-18T12:26:42.998Z</time></trkpt><trkpt lat="45.46030592312522" lon="10.983542121243044"><ele>79.0</ele><time>2026-04-18T12:26:44.998Z</time></trkpt><trkpt lat="45.46035040284764" lon="10.98341378341348"><ele>79.0</ele><time>2026-04-18T12:26:46.998Z</time></trkpt><trkpt lat="45.46033601734236" lon="10.983289353701467"><ele>79.0</ele><time>2026-04-18T12:26:48.998Z</time></trkpt><trkpt lat="45.46025203160513" lon="10.983209070592462"><ele>79.0</ele><time>2026-04-18T12:26:50.998Z</time></trkpt><trkpt lat="45.46015752807855" lon="10.983169087277137"><ele>79.0</ele><time>2026-04-18T12:26:52.998Z</time></trkpt><trkpt lat="45.46005986796618" lon="10.983097339146175"><ele>79.0</ele><time>2026-04-18T12:26:54.998Z</time></trkpt><trkpt lat="45.45995756144652" lon="10.983032324564656"><ele>79.0</ele><time>2026-04-18T12:26:56.998Z</time></trkpt><trkpt lat="45.45985960934458" lon="10.9829718821251"><ele>79.0</ele><time>2026-04-18T12:26:58.998Z</time></trkpt><trkpt lat="45.45976298017848" lon="10.982900478836328"><ele>79.0</ele><time>2026-04-18T12:27:00.998Z</time></trkpt><trkpt lat="45.45966523567803" lon="10.982824406871705"><ele>79.0</ele><time>2026-04-18T12:27:02.998Z</time></trkpt><trkpt lat="45.459562200244804" lon="10.98275704467199"><ele>79.0</ele><time>2026-04-18T12:27:04.998Z</time></trkpt><trkpt lat="45.45947055986836" lon="10.982688169719694"><ele>78.8</ele><time>2026-04-18T12:27:06.998Z</time></trkpt><trkpt lat="45.45941025783066" lon="10.982579660595887"><ele>78.60000000000001</ele><time>2026-04-18T12:27:09Z</time></trkpt><trkpt lat="45.45942062227036" lon="10.982426160721507"><ele>78.4</ele><time>2026-04-18T12:27:11Z</time></trkpt><trkpt lat="45.459420288277045" lon="10.982284867759418"><ele>78.2</ele><time>2026-04-18T12:27:13Z</time></trkpt><trkpt lat="45.45943031655606" lon="10.982146994857896"><ele>78.0</ele><time>2026-04-18T12:27:15Z</time></trkpt><trkpt lat="45.459422706174216" lon="10.982001267709622"><ele>78.0</ele><time>2026-04-18T12:27:17Z</time></trkpt><trkpt lat="45.45942614451411" lon="10.981856758778228"><ele>78.0</ele><time>2026-04-18T12:27:19Z</time></trkpt><trkpt lat="45.459426779374134" lon="10.981708044192144"><ele>78.0</ele><time>2026-04-18T12:27:21Z</time></trkpt><trkpt lat="45.459427650623184" lon="10.981565706678415"><ele>78.0</ele><time>2026-04-18T12:27:23Z</time></trkpt><trkpt lat="45.459434490285155" lon="10.981413548531616"><ele>78.0</ele><time>2026-04-18T12:27:25Z</time></trkpt><trkpt lat="45.45944140415567" lon="10.981266478007376"><ele>78.0</ele><time>2026-04-18T12:27:27Z</time></trkpt><trkpt lat="45.45944617548903" lon="10.98111828626843"><ele>78.0</ele><time>2026-04-18T12:27:29Z</time></trkpt><trkpt lat="45.45944704155096" lon="10.980968695215823"><ele>78.0</ele><time>2026-04-18T12:27:31Z</time></trkpt><trkpt lat="45.45945587245899" lon="10.980821131362783"><ele>78.0</ele><time>2026-04-18T12:27:33Z</time></trkpt><trkpt lat="45.45946328961949" lon="10.98068044117419"><ele>78.0</ele><time>2026-04-18T12:27:35Z</time></trkpt><trkpt lat="45.45946030745851" lon="10.980537082356477"><ele>78.0</ele><time>2026-04-18T12:27:37Z</time></trkpt><trkpt lat="45.459465294700486" lon="10.980388008443015"><ele>78.0</ele><time>2026-04-18T12:27:39Z</time></trkpt><trkpt lat="45.45946442305404" lon="10.98025234925466"><ele>78.0</ele><time>2026-04-18T12:27:41Z</time></trkpt><trkpt lat="45.45947776113431" lon="10.980127720276192"><ele>78.0</ele><time>2026-04-18T12:27:43Z</time></trkpt><trkpt lat="45.45947272723282" lon="10.97998404955459"><ele>78.0</ele><time>2026-04-18T12:27:45Z</time></trkpt><trkpt lat="45.459480111333534" lon="10.97985136608015"><ele>78.2</ele><time>2026-04-18T12:27:46.999Z</time></trkpt><trkpt lat="45.45948373469181" lon="10.979723155606633"><ele>78.4</ele><time>2026-04-18T12:27:48.999Z</time></trkpt><trkpt lat="45.45953421653694" lon="10.979607029503596"><ele>78.60000000000001</ele><time>2026-04-18T12:27:50.999Z</time></trkpt><trkpt lat="45.45958442068302" lon="10.979493231912224"><ele>78.8</ele><time>2026-04-18T12:27:52.999Z</time></trkpt><trkpt lat="45.45964860939291" lon="10.97938870248795"><ele>79.0</ele><time>2026-04-18T12:27:54.999Z</time></trkpt><trkpt lat="45.4597084435905" lon="10.979277270380019"><ele>79.2</ele><time>2026-04-18T12:27:56.999Z</time></trkpt><trkpt lat="45.459760371217456" lon="10.979168525934295"><ele>79.4</ele><time>2026-04-18T12:27:58.999Z</time></trkpt><trkpt lat="45.45980553794536" lon="10.979053386864708"><ele>79.6</ele><time>2026-04-18T12:28:00.999Z</time></trkpt><trkpt lat="45.45986983363882" lon="10.978949079068292"><ele>79.8</ele><time>2026-04-18T12:28:02.999Z</time></trkpt><trkpt lat="45.45993289008097" lon="10.97883879869966"><ele>80.0</ele><time>2026-04-18T12:28:04.999Z</time></trkpt><trkpt lat="45.45998870669808" lon="10.978732946824403"><ele>80.0</ele><time>2026-04-18T12:28:06.999Z</time></trkpt><trkpt lat="45.460042854485" lon="10.978626928447905"><ele>80.0</ele><time>2026-04-18T12:28:08.999Z</time></trkpt><trkpt lat="45.460086610831276" lon="10.978530025302991"><ele>80.0</ele><time>2026-04-18T12:28:10.999Z</time></trkpt><trkpt lat="45.460158842553376" lon="10.978487572506445"><ele>80.0</ele><time>2026-04-18T12:28:12.999Z</time></trkpt><trkpt lat="45.46023147028567" lon="10.97858741885614"><ele>80.0</ele><time>2026-04-18T12:28:14.999Z</time></trkpt><trkpt lat="45.460305282759826" lon="10.978645135908968"><ele>80.0</ele><time>2026-04-18T12:28:16.999Z</time></trkpt><trkpt lat="45.460388365372225" lon="10.978719125526801"><ele>79.83333333333334</ele><time>2026-04-18T12:28:18.999Z</time></trkpt><trkpt lat="45.46045534557012" lon="10.978800299662018"><ele>79.66666666666667</ele><time>2026-04-18T12:28:20.999Z</time></trkpt><trkpt lat="45.46054143885649" lon="10.978849342497858"><ele>79.5</ele><time>2026-04-18T12:28:22.999Z</time></trkpt><trkpt lat="45.46060398503725" lon="10.978896659084013"><ele>79.33333333333333</ele><time>2026-04-18T12:28:24.999Z</time></trkpt><trkpt lat="45.46066526224428" lon="10.97894217947855"><ele>79.16666666666666</ele><time>2026-04-18T12:28:26.999Z</time></trkpt><trkpt lat="45.46072341595993" lon="10.978998893330095"><ele>79.0</ele><time>2026-04-18T12:28:28.999Z</time></trkpt><trkpt lat="45.46080295630572" lon="10.979004706339795"><ele>79.00000000000001</ele><time>2026-04-18T12:28:31.999Z</time></trkpt><trkpt lat="45.46086581359669" lon="10.978901614751887"><ele>79.0</ele><time>2026-04-18T12:28:34.999Z</time></trkpt><trkpt lat="45.4608976581703" lon="10.978815576935679"><ele>79.0</ele><time>2026-04-18T12:28:36.999Z</time></trkpt><trkpt lat="45.46092578990068" lon="10.978729887853728"><ele>79.0</ele><time>2026-04-18T12:28:38.999Z</time></trkpt><trkpt lat="45.46095713781862" lon="10.978646634369795"><ele>79.0</ele><time>2026-04-18T12:28:40.998Z</time></trkpt><trkpt lat="45.4609890360191" lon="10.978567198530811"><ele>79.00000000000001</ele><time>2026-04-18T12:28:42.998Z</time></trkpt><trkpt lat="45.46102615180303" lon="10.978489958234212"><ele>79.0</ele><time>2026-04-18T12:28:44.998Z</time></trkpt><trkpt lat="45.46106170677677" lon="10.97840519005417"><ele>79.33333333333333</ele><time>2026-04-18T12:28:46.998Z</time></trkpt><trkpt lat="45.461077829858574" lon="10.978300770218242"><ele>79.66666666666666</ele><time>2026-04-18T12:28:49.998Z</time></trkpt><trkpt lat="45.46101526435509" lon="10.978235950669928"><ele>80.0</ele><time>2026-04-18T12:28:52.998Z</time></trkpt><trkpt lat="45.46095228752446" lon="10.978185430476705"><ele>80.33333333333333</ele><time>2026-04-18T12:28:54.998Z</time></trkpt><trkpt lat="45.46088155346661" lon="10.978145895312128"><ele>80.66666666666667</ele><time>2026-04-18T12:28:57.998Z</time></trkpt><trkpt lat="45.46080744306834" lon="10.97810403377551"><ele>81.0</ele><time>2026-04-18T12:29:00.998Z</time></trkpt><trkpt lat="45.460761262200506" lon="10.978181804092866"><ele>81.0</ele><time>2026-04-18T12:29:04.998Z</time></trkpt><trkpt lat="45.46090815609427" lon="10.978547379190534"><ele>79.0</ele><time>2026-04-18T12:29:27.413Z</time></trkpt></trkseg></trk></gpx>